<?xml version="1.0" encoding="UTF-8" standalone="no" ?>
<gpx xmlns="http://www.topografix.com/GPX/1/1" xmlns:xsi="http://www.w3.org/2001/XMLSchema-instance" xsi:schemaLocation="http://www.topografix.com/GPX/1/1 http://www.topografix.com/GPX/1/1/gpx.xsd" version="1.1" creator="VisuGPX - https://www.visugpx.com">
  <metadata>
    <name>Sommet des Anges</name>
    <desc><![CDATA[Monginevro-Sommet des Anges (Ancien Fort de Gondrans)]]></desc>
  </metadata>
  <trk>
    <name><![CDATA[Sommet_Anges_22 NOV 2017]]></name>
    <trkseg>
      <trkpt lat="44.92855" lon="6.71994">
        <ele>1858.37</ele>
        <time>2017-11-22T07:52:54Z</time>
      </trkpt>
      <trkpt lat="44.92855" lon="6.71994">
        <ele>1857.4</ele>
        <time>2017-11-22T07:53:07Z</time>
      </trkpt>
      <trkpt lat="44.92854" lon="6.71997">
        <ele>1856.44</ele>
        <time>2017-11-22T07:53:21Z</time>
      </trkpt>
      <trkpt lat="44.92854" lon="6.71998">
        <ele>1856.92</ele>
        <time>2017-11-22T07:53:45Z</time>
      </trkpt>
      <trkpt lat="44.92854" lon="6.71995">
        <ele>1856.44</ele>
        <time>2017-11-22T07:54:18Z</time>
      </trkpt>
      <trkpt lat="44.92853" lon="6.71997">
        <ele>1856.92</ele>
        <time>2017-11-22T07:54:52Z</time>
      </trkpt>
      <trkpt lat="44.92853" lon="6.71996">
        <ele>1856.92</ele>
        <time>2017-11-22T07:55:30Z</time>
      </trkpt>
      <trkpt lat="44.92853" lon="6.71998">
        <ele>1856.92</ele>
        <time>2017-11-22T07:56:00Z</time>
      </trkpt>
      <trkpt lat="44.92852" lon="6.71999">
        <ele>1856.92</ele>
        <time>2017-11-22T07:56:43Z</time>
      </trkpt>
      <trkpt lat="44.9285" lon="6.71999">
        <ele>1856.92</ele>
        <time>2017-11-22T07:57:18Z</time>
      </trkpt>
      <trkpt lat="44.92853" lon="6.72">
        <ele>1856.92</ele>
        <time>2017-11-22T07:57:53Z</time>
      </trkpt>
      <trkpt lat="44.92858" lon="6.72">
        <ele>1857.4</ele>
        <time>2017-11-22T07:58:31Z</time>
      </trkpt>
      <trkpt lat="44.92855" lon="6.72">
        <ele>1857.4</ele>
        <time>2017-11-22T07:59:08Z</time>
      </trkpt>
      <trkpt lat="44.92856" lon="6.72">
        <ele>1857.4</ele>
        <time>2017-11-22T07:59:42Z</time>
      </trkpt>
      <trkpt lat="44.92855" lon="6.72001">
        <ele>1857.4</ele>
        <time>2017-11-22T08:00:16Z</time>
      </trkpt>
      <trkpt lat="44.92854" lon="6.72">
        <ele>1857.89</ele>
        <time>2017-11-22T08:00:58Z</time>
      </trkpt>
      <trkpt lat="44.92856" lon="6.71999">
        <ele>1858.37</ele>
        <time>2017-11-22T08:01:34Z</time>
      </trkpt>
      <trkpt lat="44.92854" lon="6.72001">
        <ele>1857.89</ele>
        <time>2017-11-22T08:02:10Z</time>
      </trkpt>
      <trkpt lat="44.92853" lon="6.71996">
        <ele>1859.33</ele>
        <time>2017-11-22T08:02:36Z</time>
      </trkpt>
      <trkpt lat="44.92851" lon="6.71993">
        <ele>1859.33</ele>
        <time>2017-11-22T08:02:50Z</time>
      </trkpt>
      <trkpt lat="44.92845" lon="6.71996">
        <ele>1860.29</ele>
        <time>2017-11-22T08:03:03Z</time>
      </trkpt>
      <trkpt lat="44.92836" lon="6.71996">
        <ele>1861.25</ele>
        <time>2017-11-22T08:03:17Z</time>
      </trkpt>
      <trkpt lat="44.92827" lon="6.71994">
        <ele>1861.73</ele>
        <time>2017-11-22T08:03:33Z</time>
      </trkpt>
      <trkpt lat="44.92822" lon="6.71992">
        <ele>1862.21</ele>
        <time>2017-11-22T08:03:48Z</time>
      </trkpt>
      <trkpt lat="44.92821" lon="6.71999">
        <ele>1862.21</ele>
        <time>2017-11-22T08:04:05Z</time>
      </trkpt>
      <trkpt lat="44.92821" lon="6.72">
        <ele>1862.69</ele>
        <time>2017-11-22T08:04:15Z</time>
      </trkpt>
      <trkpt lat="44.92816" lon="6.72005">
        <ele>1863.17</ele>
        <time>2017-11-22T08:04:28Z</time>
      </trkpt>
      <trkpt lat="44.92812" lon="6.72012">
        <ele>1864.61</ele>
        <time>2017-11-22T08:04:36Z</time>
      </trkpt>
      <trkpt lat="44.92803" lon="6.72022">
        <ele>1866.06</ele>
        <time>2017-11-22T08:04:52Z</time>
      </trkpt>
      <trkpt lat="44.92803" lon="6.72036">
        <ele>1867.02</ele>
        <time>2017-11-22T08:05:06Z</time>
      </trkpt>
      <trkpt lat="44.92803" lon="6.72041">
        <ele>1867.02</ele>
        <time>2017-11-22T08:05:11Z</time>
      </trkpt>
      <trkpt lat="44.92803" lon="6.72056">
        <ele>1867.02</ele>
        <time>2017-11-22T08:05:28Z</time>
      </trkpt>
      <trkpt lat="44.92803" lon="6.72059">
        <ele>1867.5</ele>
        <time>2017-11-22T08:05:41Z</time>
      </trkpt>
      <trkpt lat="44.92803" lon="6.7206">
        <ele>1867.5</ele>
        <time>2017-11-22T08:06:01Z</time>
      </trkpt>
      <trkpt lat="44.92803" lon="6.72061">
        <ele>1866.54</ele>
        <time>2017-11-22T08:06:11Z</time>
      </trkpt>
      <trkpt lat="44.92804" lon="6.7206">
        <ele>1867.5</ele>
        <time>2017-11-22T08:06:28Z</time>
      </trkpt>
      <trkpt lat="44.92801" lon="6.72058">
        <ele>1867.02</ele>
        <time>2017-11-22T08:06:46Z</time>
      </trkpt>
      <trkpt lat="44.928" lon="6.72058">
        <ele>1867.02</ele>
        <time>2017-11-22T08:07:01Z</time>
      </trkpt>
      <trkpt lat="44.92804" lon="6.7207">
        <ele>1867.98</ele>
        <time>2017-11-22T08:07:16Z</time>
      </trkpt>
      <trkpt lat="44.92803" lon="6.72069">
        <ele>1867.98</ele>
        <time>2017-11-22T08:07:28Z</time>
      </trkpt>
      <trkpt lat="44.928" lon="6.72067">
        <ele>1867.98</ele>
        <time>2017-11-22T08:07:53Z</time>
      </trkpt>
      <trkpt lat="44.928" lon="6.72065">
        <ele>1867.98</ele>
        <time>2017-11-22T08:08:16Z</time>
      </trkpt>
      <trkpt lat="44.928" lon="6.72069">
        <ele>1867.98</ele>
        <time>2017-11-22T08:08:35Z</time>
      </trkpt>
      <trkpt lat="44.92799" lon="6.72067">
        <ele>1867.98</ele>
        <time>2017-11-22T08:08:58Z</time>
      </trkpt>
      <trkpt lat="44.92796" lon="6.72065">
        <ele>1867.98</ele>
        <time>2017-11-22T08:09:18Z</time>
      </trkpt>
      <trkpt lat="44.92796" lon="6.72067">
        <ele>1867.98</ele>
        <time>2017-11-22T08:09:42Z</time>
      </trkpt>
      <trkpt lat="44.92799" lon="6.72067">
        <ele>1867.98</ele>
        <time>2017-11-22T08:10:02Z</time>
      </trkpt>
      <trkpt lat="44.928" lon="6.72073">
        <ele>1868.46</ele>
        <time>2017-11-22T08:10:16Z</time>
      </trkpt>
      <trkpt lat="44.92798" lon="6.72078">
        <ele>1868.46</ele>
        <time>2017-11-22T08:10:26Z</time>
      </trkpt>
      <trkpt lat="44.92794" lon="6.72088">
        <ele>1869.9</ele>
        <time>2017-11-22T08:10:38Z</time>
      </trkpt>
      <trkpt lat="44.92786" lon="6.72092">
        <ele>1869.9</ele>
        <time>2017-11-22T08:10:48Z</time>
      </trkpt>
      <trkpt lat="44.92774" lon="6.72094">
        <ele>1870.38</ele>
        <time>2017-11-22T08:11:02Z</time>
      </trkpt>
      <trkpt lat="44.92761" lon="6.72094">
        <ele>1871.82</ele>
        <time>2017-11-22T08:11:17Z</time>
      </trkpt>
      <trkpt lat="44.92749" lon="6.72095">
        <ele>1873.27</ele>
        <time>2017-11-22T08:11:33Z</time>
      </trkpt>
      <trkpt lat="44.92746" lon="6.72095">
        <ele>1873.75</ele>
        <time>2017-11-22T08:11:36Z</time>
      </trkpt>
      <trkpt lat="44.92734" lon="6.72097">
        <ele>1874.71</ele>
        <time>2017-11-22T08:11:50Z</time>
      </trkpt>
      <trkpt lat="44.92724" lon="6.72098">
        <ele>1876.15</ele>
        <time>2017-11-22T08:12:05Z</time>
      </trkpt>
      <trkpt lat="44.92712" lon="6.72101">
        <ele>1878.07</ele>
        <time>2017-11-22T08:12:19Z</time>
      </trkpt>
      <trkpt lat="44.92703" lon="6.72104">
        <ele>1879.51</ele>
        <time>2017-11-22T08:12:32Z</time>
      </trkpt>
      <trkpt lat="44.92693" lon="6.72108">
        <ele>1880.96</ele>
        <time>2017-11-22T08:12:47Z</time>
      </trkpt>
      <trkpt lat="44.92683" lon="6.72111">
        <ele>1882.4</ele>
        <time>2017-11-22T08:13:02Z</time>
      </trkpt>
      <trkpt lat="44.92675" lon="6.72115">
        <ele>1884.32</ele>
        <time>2017-11-22T08:13:16Z</time>
      </trkpt>
      <trkpt lat="44.92665" lon="6.72118">
        <ele>1886.24</ele>
        <time>2017-11-22T08:13:31Z</time>
      </trkpt>
      <trkpt lat="44.92655" lon="6.72122">
        <ele>1887.69</ele>
        <time>2017-11-22T08:13:46Z</time>
      </trkpt>
      <trkpt lat="44.92646" lon="6.72126">
        <ele>1889.61</ele>
        <time>2017-11-22T08:14:00Z</time>
      </trkpt>
      <trkpt lat="44.92635" lon="6.72128">
        <ele>1891.53</ele>
        <time>2017-11-22T08:14:15Z</time>
      </trkpt>
      <trkpt lat="44.92626" lon="6.72131">
        <ele>1893.45</ele>
        <time>2017-11-22T08:14:29Z</time>
      </trkpt>
      <trkpt lat="44.92617" lon="6.72135">
        <ele>1895.38</ele>
        <time>2017-11-22T08:14:44Z</time>
      </trkpt>
      <trkpt lat="44.92608" lon="6.72138">
        <ele>1896.82</ele>
        <time>2017-11-22T08:14:57Z</time>
      </trkpt>
      <trkpt lat="44.926" lon="6.7214">
        <ele>1900.18</ele>
        <time>2017-11-22T08:15:11Z</time>
      </trkpt>
      <trkpt lat="44.9259" lon="6.72142">
        <ele>1900.66</ele>
        <time>2017-11-22T08:15:25Z</time>
      </trkpt>
      <trkpt lat="44.92581" lon="6.72146">
        <ele>1902.59</ele>
        <time>2017-11-22T08:15:39Z</time>
      </trkpt>
      <trkpt lat="44.92573" lon="6.7215">
        <ele>1904.99</ele>
        <time>2017-11-22T08:15:55Z</time>
      </trkpt>
      <trkpt lat="44.92566" lon="6.72154">
        <ele>1906.91</ele>
        <time>2017-11-22T08:16:07Z</time>
      </trkpt>
      <trkpt lat="44.92558" lon="6.72158">
        <ele>1908.83</ele>
        <time>2017-11-22T08:16:22Z</time>
      </trkpt>
      <trkpt lat="44.92556" lon="6.72159">
        <ele>1909.32</ele>
        <time>2017-11-22T08:16:35Z</time>
      </trkpt>
      <trkpt lat="44.92547" lon="6.72161">
        <ele>1911.24</ele>
        <time>2017-11-22T08:16:49Z</time>
      </trkpt>
      <trkpt lat="44.92541" lon="6.72164">
        <ele>1912.2</ele>
        <time>2017-11-22T08:17:03Z</time>
      </trkpt>
      <trkpt lat="44.92534" lon="6.72165">
        <ele>1913.64</ele>
        <time>2017-11-22T08:17:16Z</time>
      </trkpt>
      <trkpt lat="44.92524" lon="6.72166">
        <ele>1915.56</ele>
        <time>2017-11-22T08:17:31Z</time>
      </trkpt>
      <trkpt lat="44.92515" lon="6.72166">
        <ele>1917.49</ele>
        <time>2017-11-22T08:17:45Z</time>
      </trkpt>
      <trkpt lat="44.92507" lon="6.72166">
        <ele>1918.93</ele>
        <time>2017-11-22T08:17:59Z</time>
      </trkpt>
      <trkpt lat="44.92496" lon="6.72164">
        <ele>1920.85</ele>
        <time>2017-11-22T08:18:14Z</time>
      </trkpt>
      <trkpt lat="44.92486" lon="6.72164">
        <ele>1922.29</ele>
        <time>2017-11-22T08:18:29Z</time>
      </trkpt>
      <trkpt lat="44.92477" lon="6.72164">
        <ele>1923.74</ele>
        <time>2017-11-22T08:18:43Z</time>
      </trkpt>
      <trkpt lat="44.92467" lon="6.72165">
        <ele>1925.18</ele>
        <time>2017-11-22T08:18:57Z</time>
      </trkpt>
      <trkpt lat="44.92458" lon="6.72163">
        <ele>1926.14</ele>
        <time>2017-11-22T08:19:10Z</time>
      </trkpt>
      <trkpt lat="44.92449" lon="6.72165">
        <ele>1928.06</ele>
        <time>2017-11-22T08:19:24Z</time>
      </trkpt>
      <trkpt lat="44.9244" lon="6.72167">
        <ele>1930.46</ele>
        <time>2017-11-22T08:19:40Z</time>
      </trkpt>
      <trkpt lat="44.92431" lon="6.72167">
        <ele>1931.43</ele>
        <time>2017-11-22T08:19:53Z</time>
      </trkpt>
      <trkpt lat="44.92424" lon="6.72167">
        <ele>1932.87</ele>
        <time>2017-11-22T08:20:09Z</time>
      </trkpt>
      <trkpt lat="44.92413" lon="6.72167">
        <ele>1934.31</ele>
        <time>2017-11-22T08:20:22Z</time>
      </trkpt>
      <trkpt lat="44.92404" lon="6.72166">
        <ele>1936.23</ele>
        <time>2017-11-22T08:20:36Z</time>
      </trkpt>
      <trkpt lat="44.92398" lon="6.72166">
        <ele>1938.16</ele>
        <time>2017-11-22T08:20:49Z</time>
      </trkpt>
      <trkpt lat="44.92389" lon="6.72166">
        <ele>1940.08</ele>
        <time>2017-11-22T08:21:05Z</time>
      </trkpt>
      <trkpt lat="44.9238" lon="6.72165">
        <ele>1942</ele>
        <time>2017-11-22T08:21:19Z</time>
      </trkpt>
      <trkpt lat="44.9237" lon="6.72164">
        <ele>1943.92</ele>
        <time>2017-11-22T08:21:36Z</time>
      </trkpt>
      <trkpt lat="44.92362" lon="6.72163">
        <ele>1945.36</ele>
        <time>2017-11-22T08:21:48Z</time>
      </trkpt>
      <trkpt lat="44.92353" lon="6.72165">
        <ele>1947.29</ele>
        <time>2017-11-22T08:22:02Z</time>
      </trkpt>
      <trkpt lat="44.92343" lon="6.72167">
        <ele>1948.73</ele>
        <time>2017-11-22T08:22:17Z</time>
      </trkpt>
      <trkpt lat="44.92334" lon="6.72167">
        <ele>1950.65</ele>
        <time>2017-11-22T08:22:31Z</time>
      </trkpt>
      <trkpt lat="44.92326" lon="6.72169">
        <ele>1952.57</ele>
        <time>2017-11-22T08:22:45Z</time>
      </trkpt>
      <trkpt lat="44.92326" lon="6.72169">
        <ele>1949.21</ele>
        <time>2017-11-22T08:22:48Z</time>
      </trkpt>
      <trkpt lat="44.92326" lon="6.72169">
        <ele>1955.94</ele>
        <time>2017-11-22T08:22:49Z</time>
      </trkpt>
      <trkpt lat="44.92326" lon="6.72169">
        <ele>1952.09</ele>
        <time>2017-11-22T08:22:50Z</time>
      </trkpt>
      <trkpt lat="44.92323" lon="6.7217">
        <ele>1953.06</ele>
        <time>2017-11-22T08:23:07Z</time>
      </trkpt>
      <trkpt lat="44.92322" lon="6.72174">
        <ele>1953.06</ele>
        <time>2017-11-22T08:23:29Z</time>
      </trkpt>
      <trkpt lat="44.92321" lon="6.72174">
        <ele>1953.06</ele>
        <time>2017-11-22T08:23:47Z</time>
      </trkpt>
      <trkpt lat="44.92323" lon="6.72177">
        <ele>1953.06</ele>
        <time>2017-11-22T08:24:13Z</time>
      </trkpt>
      <trkpt lat="44.92324" lon="6.72176">
        <ele>1953.06</ele>
        <time>2017-11-22T08:24:42Z</time>
      </trkpt>
      <trkpt lat="44.9232" lon="6.72173">
        <ele>1954.02</ele>
        <time>2017-11-22T08:25:05Z</time>
      </trkpt>
      <trkpt lat="44.92316" lon="6.72175">
        <ele>1956.9</ele>
        <time>2017-11-22T08:25:17Z</time>
      </trkpt>
      <trkpt lat="44.92307" lon="6.72179">
        <ele>1956.42</ele>
        <time>2017-11-22T08:25:30Z</time>
      </trkpt>
      <trkpt lat="44.92299" lon="6.72184">
        <ele>1957.86</ele>
        <time>2017-11-22T08:25:44Z</time>
      </trkpt>
      <trkpt lat="44.92292" lon="6.72188">
        <ele>1959.3</ele>
        <time>2017-11-22T08:25:58Z</time>
      </trkpt>
      <trkpt lat="44.92284" lon="6.72193">
        <ele>1960.75</ele>
        <time>2017-11-22T08:26:13Z</time>
      </trkpt>
      <trkpt lat="44.92276" lon="6.722">
        <ele>1962.19</ele>
        <time>2017-11-22T08:26:28Z</time>
      </trkpt>
      <trkpt lat="44.92265" lon="6.7221">
        <ele>1963.63</ele>
        <time>2017-11-22T08:26:45Z</time>
      </trkpt>
      <trkpt lat="44.92256" lon="6.72218">
        <ele>1965.07</ele>
        <time>2017-11-22T08:26:59Z</time>
      </trkpt>
      <trkpt lat="44.92247" lon="6.72225">
        <ele>1966.51</ele>
        <time>2017-11-22T08:27:13Z</time>
      </trkpt>
      <trkpt lat="44.92237" lon="6.72231">
        <ele>1967.96</ele>
        <time>2017-11-22T08:27:28Z</time>
      </trkpt>
      <trkpt lat="44.92226" lon="6.72239">
        <ele>1969.88</ele>
        <time>2017-11-22T08:27:45Z</time>
      </trkpt>
      <trkpt lat="44.92217" lon="6.72246">
        <ele>1970.84</ele>
        <time>2017-11-22T08:27:59Z</time>
      </trkpt>
      <trkpt lat="44.92207" lon="6.72252">
        <ele>1972.28</ele>
        <time>2017-11-22T08:28:13Z</time>
      </trkpt>
      <trkpt lat="44.92201" lon="6.72258">
        <ele>1972.76</ele>
        <time>2017-11-22T08:28:23Z</time>
      </trkpt>
      <trkpt lat="44.92192" lon="6.72266">
        <ele>1974.2</ele>
        <time>2017-11-22T08:28:39Z</time>
      </trkpt>
      <trkpt lat="44.92183" lon="6.72273">
        <ele>1975.65</ele>
        <time>2017-11-22T08:28:53Z</time>
      </trkpt>
      <trkpt lat="44.92174" lon="6.72281">
        <ele>1976.61</ele>
        <time>2017-11-22T08:29:09Z</time>
      </trkpt>
      <trkpt lat="44.92168" lon="6.72287">
        <ele>1977.57</ele>
        <time>2017-11-22T08:29:20Z</time>
      </trkpt>
      <trkpt lat="44.92162" lon="6.72291">
        <ele>1977.57</ele>
        <time>2017-11-22T08:29:27Z</time>
      </trkpt>
      <trkpt lat="44.92154" lon="6.72298">
        <ele>1978.53</ele>
        <time>2017-11-22T08:29:42Z</time>
      </trkpt>
      <trkpt lat="44.92141" lon="6.72308">
        <ele>1979.49</ele>
        <time>2017-11-22T08:30:00Z</time>
      </trkpt>
      <trkpt lat="44.92133" lon="6.72317">
        <ele>1980.45</ele>
        <time>2017-11-22T08:30:15Z</time>
      </trkpt>
      <trkpt lat="44.92123" lon="6.72327">
        <ele>1982.38</ele>
        <time>2017-11-22T08:30:31Z</time>
      </trkpt>
      <trkpt lat="44.92115" lon="6.72337">
        <ele>1984.78</ele>
        <time>2017-11-22T08:30:47Z</time>
      </trkpt>
      <trkpt lat="44.9211" lon="6.72345">
        <ele>1986.22</ele>
        <time>2017-11-22T08:31:01Z</time>
      </trkpt>
      <trkpt lat="44.92104" lon="6.72353">
        <ele>1988.62</ele>
        <time>2017-11-22T08:31:18Z</time>
      </trkpt>
      <trkpt lat="44.921" lon="6.72361">
        <ele>1990.07</ele>
        <time>2017-11-22T08:31:30Z</time>
      </trkpt>
      <trkpt lat="44.92097" lon="6.72369">
        <ele>1991.99</ele>
        <time>2017-11-22T08:31:45Z</time>
      </trkpt>
      <trkpt lat="44.92092" lon="6.72378">
        <ele>1994.39</ele>
        <time>2017-11-22T08:32:04Z</time>
      </trkpt>
      <trkpt lat="44.92087" lon="6.72385">
        <ele>1996.32</ele>
        <time>2017-11-22T08:32:19Z</time>
      </trkpt>
      <trkpt lat="44.92083" lon="6.72393">
        <ele>1997.76</ele>
        <time>2017-11-22T08:32:34Z</time>
      </trkpt>
      <trkpt lat="44.92078" lon="6.724">
        <ele>1999.68</ele>
        <time>2017-11-22T08:32:49Z</time>
      </trkpt>
      <trkpt lat="44.92076" lon="6.72406">
        <ele>2001.12</ele>
        <time>2017-11-22T08:33:03Z</time>
      </trkpt>
      <trkpt lat="44.92072" lon="6.72414">
        <ele>2002.56</ele>
        <time>2017-11-22T08:33:16Z</time>
      </trkpt>
      <trkpt lat="44.92068" lon="6.72423">
        <ele>2004.49</ele>
        <time>2017-11-22T08:33:33Z</time>
      </trkpt>
      <trkpt lat="44.92064" lon="6.72438">
        <ele>2006.41</ele>
        <time>2017-11-22T08:33:50Z</time>
      </trkpt>
      <trkpt lat="44.92062" lon="6.72445">
        <ele>2007.85</ele>
        <time>2017-11-22T08:34:02Z</time>
      </trkpt>
      <trkpt lat="44.92059" lon="6.72451">
        <ele>2009.77</ele>
        <time>2017-11-22T08:34:16Z</time>
      </trkpt>
      <trkpt lat="44.92056" lon="6.72461">
        <ele>2011.22</ele>
        <time>2017-11-22T08:34:28Z</time>
      </trkpt>
      <trkpt lat="44.92053" lon="6.72468">
        <ele>2012.66</ele>
        <time>2017-11-22T08:34:42Z</time>
      </trkpt>
      <trkpt lat="44.92048" lon="6.72478">
        <ele>2014.58</ele>
        <time>2017-11-22T08:34:58Z</time>
      </trkpt>
      <trkpt lat="44.92045" lon="6.72487">
        <ele>2016.02</ele>
        <time>2017-11-22T08:35:14Z</time>
      </trkpt>
      <trkpt lat="44.92038" lon="6.72499">
        <ele>2017.94</ele>
        <time>2017-11-22T08:35:33Z</time>
      </trkpt>
      <trkpt lat="44.92033" lon="6.72511">
        <ele>2019.39</ele>
        <time>2017-11-22T08:35:49Z</time>
      </trkpt>
      <trkpt lat="44.92029" lon="6.72516">
        <ele>2020.83</ele>
        <time>2017-11-22T08:36:03Z</time>
      </trkpt>
      <trkpt lat="44.92024" lon="6.72526">
        <ele>2021.79</ele>
        <time>2017-11-22T08:36:17Z</time>
      </trkpt>
      <trkpt lat="44.9202" lon="6.72535">
        <ele>2023.23</ele>
        <time>2017-11-22T08:36:31Z</time>
      </trkpt>
      <trkpt lat="44.92014" lon="6.72543">
        <ele>2024.67</ele>
        <time>2017-11-22T08:36:48Z</time>
      </trkpt>
      <trkpt lat="44.92011" lon="6.72548">
        <ele>2025.64</ele>
        <time>2017-11-22T08:37:02Z</time>
      </trkpt>
      <trkpt lat="44.92011" lon="6.72551">
        <ele>2025.64</ele>
        <time>2017-11-22T08:37:20Z</time>
      </trkpt>
      <trkpt lat="44.92007" lon="6.72559">
        <ele>2026.6</ele>
        <time>2017-11-22T08:37:34Z</time>
      </trkpt>
      <trkpt lat="44.92002" lon="6.72565">
        <ele>2028.04</ele>
        <time>2017-11-22T08:37:49Z</time>
      </trkpt>
      <trkpt lat="44.91999" lon="6.7257">
        <ele>2029.96</ele>
        <time>2017-11-22T08:38:04Z</time>
      </trkpt>
      <trkpt lat="44.91996" lon="6.72577">
        <ele>2031.88</ele>
        <time>2017-11-22T08:38:18Z</time>
      </trkpt>
      <trkpt lat="44.91992" lon="6.72583">
        <ele>2033.33</ele>
        <time>2017-11-22T08:38:31Z</time>
      </trkpt>
      <trkpt lat="44.91989" lon="6.72592">
        <ele>2035.73</ele>
        <time>2017-11-22T08:38:46Z</time>
      </trkpt>
      <trkpt lat="44.91986" lon="6.72597">
        <ele>2036.69</ele>
        <time>2017-11-22T08:39:00Z</time>
      </trkpt>
      <trkpt lat="44.91983" lon="6.72603">
        <ele>2038.61</ele>
        <time>2017-11-22T08:39:14Z</time>
      </trkpt>
      <trkpt lat="44.91979" lon="6.72611">
        <ele>2040.05</ele>
        <time>2017-11-22T08:39:27Z</time>
      </trkpt>
      <trkpt lat="44.91973" lon="6.72617">
        <ele>2041.98</ele>
        <time>2017-11-22T08:39:42Z</time>
      </trkpt>
      <trkpt lat="44.91972" lon="6.72622">
        <ele>2043.42</ele>
        <time>2017-11-22T08:39:55Z</time>
      </trkpt>
      <trkpt lat="44.91968" lon="6.72629">
        <ele>2045.34</ele>
        <time>2017-11-22T08:40:10Z</time>
      </trkpt>
      <trkpt lat="44.91964" lon="6.72636">
        <ele>2047.75</ele>
        <time>2017-11-22T08:40:27Z</time>
      </trkpt>
      <trkpt lat="44.9196" lon="6.7264">
        <ele>2049.19</ele>
        <time>2017-11-22T08:40:40Z</time>
      </trkpt>
      <trkpt lat="44.91956" lon="6.72647">
        <ele>2050.63</ele>
        <time>2017-11-22T08:40:55Z</time>
      </trkpt>
      <trkpt lat="44.91952" lon="6.72655">
        <ele>2052.07</ele>
        <time>2017-11-22T08:41:11Z</time>
      </trkpt>
      <trkpt lat="44.91946" lon="6.72663">
        <ele>2053.51</ele>
        <time>2017-11-22T08:41:28Z</time>
      </trkpt>
      <trkpt lat="44.91941" lon="6.72672">
        <ele>2055.44</ele>
        <time>2017-11-22T08:41:44Z</time>
      </trkpt>
      <trkpt lat="44.91936" lon="6.72678">
        <ele>2057.84</ele>
        <time>2017-11-22T08:42:00Z</time>
      </trkpt>
      <trkpt lat="44.91932" lon="6.72685">
        <ele>2059.76</ele>
        <time>2017-11-22T08:42:15Z</time>
      </trkpt>
      <trkpt lat="44.91927" lon="6.7269">
        <ele>2060.72</ele>
        <time>2017-11-22T08:42:29Z</time>
      </trkpt>
      <trkpt lat="44.91919" lon="6.72697">
        <ele>2062.65</ele>
        <time>2017-11-22T08:42:45Z</time>
      </trkpt>
      <trkpt lat="44.91914" lon="6.72702">
        <ele>2063.13</ele>
        <time>2017-11-22T08:42:59Z</time>
      </trkpt>
      <trkpt lat="44.91909" lon="6.72709">
        <ele>2064.09</ele>
        <time>2017-11-22T08:43:14Z</time>
      </trkpt>
      <trkpt lat="44.91902" lon="6.72717">
        <ele>2065.53</ele>
        <time>2017-11-22T08:43:29Z</time>
      </trkpt>
      <trkpt lat="44.91894" lon="6.72725">
        <ele>2067.45</ele>
        <time>2017-11-22T08:43:43Z</time>
      </trkpt>
      <trkpt lat="44.9189" lon="6.7273">
        <ele>2069.38</ele>
        <time>2017-11-22T08:43:59Z</time>
      </trkpt>
      <trkpt lat="44.91886" lon="6.72736">
        <ele>2070.34</ele>
        <time>2017-11-22T08:44:12Z</time>
      </trkpt>
      <trkpt lat="44.91883" lon="6.72737">
        <ele>2071.3</ele>
        <time>2017-11-22T08:44:24Z</time>
      </trkpt>
      <trkpt lat="44.91877" lon="6.72745">
        <ele>2073.22</ele>
        <time>2017-11-22T08:44:39Z</time>
      </trkpt>
      <trkpt lat="44.91873" lon="6.7275">
        <ele>2074.66</ele>
        <time>2017-11-22T08:44:55Z</time>
      </trkpt>
      <trkpt lat="44.91867" lon="6.72758">
        <ele>2077.07</ele>
        <time>2017-11-22T08:45:10Z</time>
      </trkpt>
      <trkpt lat="44.91861" lon="6.72767">
        <ele>2078.99</ele>
        <time>2017-11-22T08:45:28Z</time>
      </trkpt>
      <trkpt lat="44.91856" lon="6.72773">
        <ele>2080.91</ele>
        <time>2017-11-22T08:45:44Z</time>
      </trkpt>
      <trkpt lat="44.9185" lon="6.72779">
        <ele>2082.83</ele>
        <time>2017-11-22T08:46:00Z</time>
      </trkpt>
      <trkpt lat="44.91845" lon="6.72787">
        <ele>2084.28</ele>
        <time>2017-11-22T08:46:16Z</time>
      </trkpt>
      <trkpt lat="44.91843" lon="6.7279">
        <ele>2085.24</ele>
        <time>2017-11-22T08:46:30Z</time>
      </trkpt>
      <trkpt lat="44.9184" lon="6.72797">
        <ele>2086.68</ele>
        <time>2017-11-22T08:46:45Z</time>
      </trkpt>
      <trkpt lat="44.91838" lon="6.72809">
        <ele>2089.56</ele>
        <time>2017-11-22T08:47:05Z</time>
      </trkpt>
      <trkpt lat="44.91839" lon="6.72817">
        <ele>2091.49</ele>
        <time>2017-11-22T08:47:19Z</time>
      </trkpt>
      <trkpt lat="44.91839" lon="6.72822">
        <ele>2092.93</ele>
        <time>2017-11-22T08:47:30Z</time>
      </trkpt>
      <trkpt lat="44.91836" lon="6.72829">
        <ele>2094.85</ele>
        <time>2017-11-22T08:47:45Z</time>
      </trkpt>
      <trkpt lat="44.91835" lon="6.72837">
        <ele>2096.77</ele>
        <time>2017-11-22T08:48:01Z</time>
      </trkpt>
      <trkpt lat="44.91836" lon="6.72844">
        <ele>2098.7</ele>
        <time>2017-11-22T08:48:16Z</time>
      </trkpt>
      <trkpt lat="44.91835" lon="6.72851">
        <ele>2100.14</ele>
        <time>2017-11-22T08:48:31Z</time>
      </trkpt>
      <trkpt lat="44.91836" lon="6.72858">
        <ele>2101.1</ele>
        <time>2017-11-22T08:48:41Z</time>
      </trkpt>
      <trkpt lat="44.91833" lon="6.72864">
        <ele>2103.02</ele>
        <time>2017-11-22T08:48:56Z</time>
      </trkpt>
      <trkpt lat="44.9183" lon="6.72868">
        <ele>2104.46</ele>
        <time>2017-11-22T08:49:10Z</time>
      </trkpt>
      <trkpt lat="44.91827" lon="6.72875">
        <ele>2106.39</ele>
        <time>2017-11-22T08:49:26Z</time>
      </trkpt>
      <trkpt lat="44.91825" lon="6.72881">
        <ele>2108.31</ele>
        <time>2017-11-22T08:49:41Z</time>
      </trkpt>
      <trkpt lat="44.91822" lon="6.72886">
        <ele>2110.23</ele>
        <time>2017-11-22T08:49:56Z</time>
      </trkpt>
      <trkpt lat="44.91817" lon="6.72892">
        <ele>2111.67</ele>
        <time>2017-11-22T08:50:12Z</time>
      </trkpt>
      <trkpt lat="44.91812" lon="6.72901">
        <ele>2113.6</ele>
        <time>2017-11-22T08:50:29Z</time>
      </trkpt>
      <trkpt lat="44.91807" lon="6.72905">
        <ele>2115.52</ele>
        <time>2017-11-22T08:50:44Z</time>
      </trkpt>
      <trkpt lat="44.91802" lon="6.72908">
        <ele>2116.96</ele>
        <time>2017-11-22T08:50:58Z</time>
      </trkpt>
      <trkpt lat="44.91799" lon="6.72911">
        <ele>2118.4</ele>
        <time>2017-11-22T08:51:13Z</time>
      </trkpt>
      <trkpt lat="44.91795" lon="6.72916">
        <ele>2119.84</ele>
        <time>2017-11-22T08:51:26Z</time>
      </trkpt>
      <trkpt lat="44.91793" lon="6.72923">
        <ele>2121.77</ele>
        <time>2017-11-22T08:51:41Z</time>
      </trkpt>
      <trkpt lat="44.9179" lon="6.7293">
        <ele>2123.21</ele>
        <time>2017-11-22T08:51:55Z</time>
      </trkpt>
      <trkpt lat="44.91787" lon="6.72936">
        <ele>2124.65</ele>
        <time>2017-11-22T08:52:10Z</time>
      </trkpt>
      <trkpt lat="44.91785" lon="6.72944">
        <ele>2126.57</ele>
        <time>2017-11-22T08:52:24Z</time>
      </trkpt>
      <trkpt lat="44.91783" lon="6.72952">
        <ele>2128.02</ele>
        <time>2017-11-22T08:52:38Z</time>
      </trkpt>
      <trkpt lat="44.9178" lon="6.72959">
        <ele>2129.94</ele>
        <time>2017-11-22T08:52:52Z</time>
      </trkpt>
      <trkpt lat="44.91779" lon="6.72971">
        <ele>2131.38</ele>
        <time>2017-11-22T08:53:07Z</time>
      </trkpt>
      <trkpt lat="44.91778" lon="6.72981">
        <ele>2132.82</ele>
        <time>2017-11-22T08:53:23Z</time>
      </trkpt>
      <trkpt lat="44.91777" lon="6.72992">
        <ele>2134.26</ele>
        <time>2017-11-22T08:53:37Z</time>
      </trkpt>
      <trkpt lat="44.91776" lon="6.73">
        <ele>2136.19</ele>
        <time>2017-11-22T08:53:51Z</time>
      </trkpt>
      <trkpt lat="44.91775" lon="6.73014">
        <ele>2138.11</ele>
        <time>2017-11-22T08:54:08Z</time>
      </trkpt>
      <trkpt lat="44.91775" lon="6.73018">
        <ele>2138.59</ele>
        <time>2017-11-22T08:54:14Z</time>
      </trkpt>
      <trkpt lat="44.91771" lon="6.73031">
        <ele>2139.55</ele>
        <time>2017-11-22T08:54:29Z</time>
      </trkpt>
      <trkpt lat="44.91763" lon="6.73036">
        <ele>2140.51</ele>
        <time>2017-11-22T08:54:46Z</time>
      </trkpt>
      <trkpt lat="44.91756" lon="6.73044">
        <ele>2141.95</ele>
        <time>2017-11-22T08:55:01Z</time>
      </trkpt>
      <trkpt lat="44.91745" lon="6.73051">
        <ele>2143.4</ele>
        <time>2017-11-22T08:55:18Z</time>
      </trkpt>
      <trkpt lat="44.91735" lon="6.73052">
        <ele>2144.84</ele>
        <time>2017-11-22T08:55:34Z</time>
      </trkpt>
      <trkpt lat="44.91725" lon="6.73053">
        <ele>2145.32</ele>
        <time>2017-11-22T08:55:47Z</time>
      </trkpt>
      <trkpt lat="44.91718" lon="6.73053">
        <ele>2145.32</ele>
        <time>2017-11-22T08:55:55Z</time>
      </trkpt>
      <trkpt lat="44.91704" lon="6.73054">
        <ele>2145.8</ele>
        <time>2017-11-22T08:56:12Z</time>
      </trkpt>
      <trkpt lat="44.91696" lon="6.73054">
        <ele>2146.28</ele>
        <time>2017-11-22T08:56:21Z</time>
      </trkpt>
      <trkpt lat="44.91693" lon="6.73054">
        <ele>2146.76</ele>
        <time>2017-11-22T08:56:26Z</time>
      </trkpt>
      <trkpt lat="44.91681" lon="6.73052">
        <ele>2147.72</ele>
        <time>2017-11-22T08:56:40Z</time>
      </trkpt>
      <trkpt lat="44.91669" lon="6.73052">
        <ele>2147.72</ele>
        <time>2017-11-22T08:56:54Z</time>
      </trkpt>
      <trkpt lat="44.91656" lon="6.73052">
        <ele>2148.2</ele>
        <time>2017-11-22T08:57:09Z</time>
      </trkpt>
      <trkpt lat="44.91655" lon="6.73052">
        <ele>2148.68</ele>
        <time>2017-11-22T08:57:11Z</time>
      </trkpt>
      <trkpt lat="44.9164" lon="6.73053">
        <ele>2148.68</ele>
        <time>2017-11-22T08:57:26Z</time>
      </trkpt>
      <trkpt lat="44.91631" lon="6.73053">
        <ele>2149.65</ele>
        <time>2017-11-22T08:57:39Z</time>
      </trkpt>
      <trkpt lat="44.91617" lon="6.73052">
        <ele>2150.61</ele>
        <time>2017-11-22T08:57:56Z</time>
      </trkpt>
      <trkpt lat="44.91605" lon="6.73052">
        <ele>2151.57</ele>
        <time>2017-11-22T08:58:11Z</time>
      </trkpt>
      <trkpt lat="44.91595" lon="6.73053">
        <ele>2153.01</ele>
        <time>2017-11-22T08:58:26Z</time>
      </trkpt>
      <trkpt lat="44.91584" lon="6.73054">
        <ele>2153.97</ele>
        <time>2017-11-22T08:58:40Z</time>
      </trkpt>
      <trkpt lat="44.91574" lon="6.73052">
        <ele>2154.93</ele>
        <time>2017-11-22T08:58:56Z</time>
      </trkpt>
      <trkpt lat="44.91568" lon="6.73054">
        <ele>2155.89</ele>
        <time>2017-11-22T08:59:11Z</time>
      </trkpt>
      <trkpt lat="44.91571" lon="6.73058">
        <ele>2155.89</ele>
        <time>2017-11-22T08:59:32Z</time>
      </trkpt>
      <trkpt lat="44.91572" lon="6.73057">
        <ele>2156.37</ele>
        <time>2017-11-22T08:59:47Z</time>
      </trkpt>
      <trkpt lat="44.91572" lon="6.73058">
        <ele>2156.37</ele>
        <time>2017-11-22T09:00:02Z</time>
      </trkpt>
      <trkpt lat="44.91573" lon="6.7306">
        <ele>2155.89</ele>
        <time>2017-11-22T09:00:20Z</time>
      </trkpt>
      <trkpt lat="44.91573" lon="6.73057">
        <ele>2156.37</ele>
        <time>2017-11-22T09:00:43Z</time>
      </trkpt>
      <trkpt lat="44.91571" lon="6.73054">
        <ele>2155.41</ele>
        <time>2017-11-22T09:01:00Z</time>
      </trkpt>
      <trkpt lat="44.91571" lon="6.73052">
        <ele>2155.41</ele>
        <time>2017-11-22T09:01:24Z</time>
      </trkpt>
      <trkpt lat="44.91569" lon="6.73055">
        <ele>2156.37</ele>
        <time>2017-11-22T09:01:50Z</time>
      </trkpt>
      <trkpt lat="44.91571" lon="6.7306">
        <ele>2156.37</ele>
        <time>2017-11-22T09:02:07Z</time>
      </trkpt>
      <trkpt lat="44.91572" lon="6.7306">
        <ele>2156.86</ele>
        <time>2017-11-22T09:02:21Z</time>
      </trkpt>
      <trkpt lat="44.9157" lon="6.73059">
        <ele>2156.86</ele>
        <time>2017-11-22T09:02:44Z</time>
      </trkpt>
      <trkpt lat="44.91561" lon="6.73053">
        <ele>2158.3</ele>
        <time>2017-11-22T09:03:00Z</time>
      </trkpt>
      <trkpt lat="44.91558" lon="6.73046">
        <ele>2159.26</ele>
        <time>2017-11-22T09:03:11Z</time>
      </trkpt>
      <trkpt lat="44.9155" lon="6.73043">
        <ele>2160.7</ele>
        <time>2017-11-22T09:03:25Z</time>
      </trkpt>
      <trkpt lat="44.91546" lon="6.73041">
        <ele>2161.66</ele>
        <time>2017-11-22T09:03:37Z</time>
      </trkpt>
      <trkpt lat="44.91539" lon="6.73037">
        <ele>2162.62</ele>
        <time>2017-11-22T09:03:50Z</time>
      </trkpt>
      <trkpt lat="44.91533" lon="6.73036">
        <ele>2163.1</ele>
        <time>2017-11-22T09:04:01Z</time>
      </trkpt>
      <trkpt lat="44.91523" lon="6.73039">
        <ele>2163.1</ele>
        <time>2017-11-22T09:04:15Z</time>
      </trkpt>
      <trkpt lat="44.91521" lon="6.73039">
        <ele>2163.1</ele>
        <time>2017-11-22T09:04:18Z</time>
      </trkpt>
      <trkpt lat="44.91508" lon="6.73041">
        <ele>2164.06</ele>
        <time>2017-11-22T09:04:34Z</time>
      </trkpt>
      <trkpt lat="44.91499" lon="6.73039">
        <ele>2164.55</ele>
        <time>2017-11-22T09:04:46Z</time>
      </trkpt>
      <trkpt lat="44.91493" lon="6.73033">
        <ele>2166.47</ele>
        <time>2017-11-22T09:05:02Z</time>
      </trkpt>
      <trkpt lat="44.91492" lon="6.73022">
        <ele>2168.39</ele>
        <time>2017-11-22T09:05:17Z</time>
      </trkpt>
      <trkpt lat="44.91493" lon="6.73021">
        <ele>2168.87</ele>
        <time>2017-11-22T09:05:19Z</time>
      </trkpt>
      <trkpt lat="44.91497" lon="6.73016">
        <ele>2169.83</ele>
        <time>2017-11-22T09:05:33Z</time>
      </trkpt>
      <trkpt lat="44.91503" lon="6.73011">
        <ele>2171.27</ele>
        <time>2017-11-22T09:05:45Z</time>
      </trkpt>
      <trkpt lat="44.91513" lon="6.73003">
        <ele>2173.68</ele>
        <time>2017-11-22T09:06:05Z</time>
      </trkpt>
      <trkpt lat="44.9152" lon="6.72998">
        <ele>2175.12</ele>
        <time>2017-11-22T09:06:22Z</time>
      </trkpt>
      <trkpt lat="44.91526" lon="6.72993">
        <ele>2177.04</ele>
        <time>2017-11-22T09:06:39Z</time>
      </trkpt>
      <trkpt lat="44.91534" lon="6.72986">
        <ele>2178.48</ele>
        <time>2017-11-22T09:06:55Z</time>
      </trkpt>
      <trkpt lat="44.9154" lon="6.72982">
        <ele>2179.93</ele>
        <time>2017-11-22T09:07:05Z</time>
      </trkpt>
      <trkpt lat="44.91548" lon="6.72979">
        <ele>2181.37</ele>
        <time>2017-11-22T09:07:21Z</time>
      </trkpt>
      <trkpt lat="44.91556" lon="6.72975">
        <ele>2182.81</ele>
        <time>2017-11-22T09:07:38Z</time>
      </trkpt>
      <trkpt lat="44.91565" lon="6.72971">
        <ele>2185.21</ele>
        <time>2017-11-22T09:07:57Z</time>
      </trkpt>
      <trkpt lat="44.91571" lon="6.72964">
        <ele>2187.14</ele>
        <time>2017-11-22T09:08:12Z</time>
      </trkpt>
      <trkpt lat="44.91575" lon="6.72957">
        <ele>2189.06</ele>
        <time>2017-11-22T09:08:27Z</time>
      </trkpt>
      <trkpt lat="44.91579" lon="6.72952">
        <ele>2190.98</ele>
        <time>2017-11-22T09:08:42Z</time>
      </trkpt>
      <trkpt lat="44.91578" lon="6.72943">
        <ele>2192.42</ele>
        <time>2017-11-22T09:08:57Z</time>
      </trkpt>
      <trkpt lat="44.91572" lon="6.72941">
        <ele>2193.39</ele>
        <time>2017-11-22T09:09:08Z</time>
      </trkpt>
      <trkpt lat="44.91568" lon="6.72935">
        <ele>2195.31</ele>
        <time>2017-11-22T09:09:22Z</time>
      </trkpt>
      <trkpt lat="44.91564" lon="6.72931">
        <ele>2196.75</ele>
        <time>2017-11-22T09:09:35Z</time>
      </trkpt>
      <trkpt lat="44.91561" lon="6.72924">
        <ele>2198.67</ele>
        <time>2017-11-22T09:09:48Z</time>
      </trkpt>
      <trkpt lat="44.91561" lon="6.72918">
        <ele>2198.67</ele>
        <time>2017-11-22T09:10:01Z</time>
      </trkpt>
      <trkpt lat="44.91562" lon="6.72917">
        <ele>2198.67</ele>
        <time>2017-11-22T09:10:15Z</time>
      </trkpt>
      <trkpt lat="44.91558" lon="6.72911">
        <ele>2199.15</ele>
        <time>2017-11-22T09:10:28Z</time>
      </trkpt>
      <trkpt lat="44.91555" lon="6.72898">
        <ele>2199.15</ele>
        <time>2017-11-22T09:10:42Z</time>
      </trkpt>
      <trkpt lat="44.91551" lon="6.72882">
        <ele>2198.19</ele>
        <time>2017-11-22T09:10:58Z</time>
      </trkpt>
      <trkpt lat="44.91545" lon="6.72875">
        <ele>2197.71</ele>
        <time>2017-11-22T09:11:09Z</time>
      </trkpt>
      <trkpt lat="44.91537" lon="6.72865">
        <ele>2196.75</ele>
        <time>2017-11-22T09:11:23Z</time>
      </trkpt>
      <trkpt lat="44.91533" lon="6.72862">
        <ele>2197.23</ele>
        <time>2017-11-22T09:11:28Z</time>
      </trkpt>
      <trkpt lat="44.91518" lon="6.72852">
        <ele>2195.79</ele>
        <time>2017-11-22T09:11:44Z</time>
      </trkpt>
      <trkpt lat="44.91502" lon="6.72844">
        <ele>2194.35</ele>
        <time>2017-11-22T09:11:59Z</time>
      </trkpt>
      <trkpt lat="44.9148" lon="6.72844">
        <ele>2191.46</ele>
        <time>2017-11-22T09:12:15Z</time>
      </trkpt>
      <trkpt lat="44.91456" lon="6.72845">
        <ele>2189.54</ele>
        <time>2017-11-22T09:12:33Z</time>
      </trkpt>
      <trkpt lat="44.91437" lon="6.72847">
        <ele>2187.14</ele>
        <time>2017-11-22T09:12:46Z</time>
      </trkpt>
      <trkpt lat="44.91418" lon="6.72848">
        <ele>2185.21</ele>
        <time>2017-11-22T09:13:00Z</time>
      </trkpt>
      <trkpt lat="44.91409" lon="6.72847">
        <ele>2184.25</ele>
        <time>2017-11-22T09:13:08Z</time>
      </trkpt>
      <trkpt lat="44.91391" lon="6.72838">
        <ele>2182.81</ele>
        <time>2017-11-22T09:13:20Z</time>
      </trkpt>
      <trkpt lat="44.91374" lon="6.72832">
        <ele>2180.41</ele>
        <time>2017-11-22T09:13:31Z</time>
      </trkpt>
      <trkpt lat="44.91362" lon="6.72826">
        <ele>2178.97</ele>
        <time>2017-11-22T09:13:43Z</time>
      </trkpt>
      <trkpt lat="44.91361" lon="6.72826">
        <ele>2178.97</ele>
        <time>2017-11-22T09:13:44Z</time>
      </trkpt>
      <trkpt lat="44.91351" lon="6.72823">
        <ele>2178</ele>
        <time>2017-11-22T09:13:52Z</time>
      </trkpt>
      <trkpt lat="44.91329" lon="6.72818">
        <ele>2175.6</ele>
        <time>2017-11-22T09:14:09Z</time>
      </trkpt>
      <trkpt lat="44.91311" lon="6.72815">
        <ele>2173.68</ele>
        <time>2017-11-22T09:14:23Z</time>
      </trkpt>
      <trkpt lat="44.91292" lon="6.72812">
        <ele>2171.27</ele>
        <time>2017-11-22T09:14:38Z</time>
      </trkpt>
      <trkpt lat="44.91281" lon="6.7281">
        <ele>2170.31</ele>
        <time>2017-11-22T09:14:46Z</time>
      </trkpt>
      <trkpt lat="44.91261" lon="6.72808">
        <ele>2167.91</ele>
        <time>2017-11-22T09:15:00Z</time>
      </trkpt>
      <trkpt lat="44.91236" lon="6.72801">
        <ele>2164.55</ele>
        <time>2017-11-22T09:15:11Z</time>
      </trkpt>
      <trkpt lat="44.91224" lon="6.72793">
        <ele>2162.62</ele>
        <time>2017-11-22T09:15:22Z</time>
      </trkpt>
      <trkpt lat="44.91198" lon="6.72789">
        <ele>2159.74</ele>
        <time>2017-11-22T09:15:41Z</time>
      </trkpt>
      <trkpt lat="44.91177" lon="6.72786">
        <ele>2157.82</ele>
        <time>2017-11-22T09:15:54Z</time>
      </trkpt>
      <trkpt lat="44.91175" lon="6.72784">
        <ele>2157.34</ele>
        <time>2017-11-22T09:15:56Z</time>
      </trkpt>
      <trkpt lat="44.91152" lon="6.72777">
        <ele>2154.45</ele>
        <time>2017-11-22T09:16:11Z</time>
      </trkpt>
      <trkpt lat="44.91131" lon="6.72767">
        <ele>2153.01</ele>
        <time>2017-11-22T09:16:28Z</time>
      </trkpt>
      <trkpt lat="44.91111" lon="6.72757">
        <ele>2152.05</ele>
        <time>2017-11-22T09:16:42Z</time>
      </trkpt>
      <trkpt lat="44.91107" lon="6.72756">
        <ele>2151.57</ele>
        <time>2017-11-22T09:16:46Z</time>
      </trkpt>
      <trkpt lat="44.91103" lon="6.72752">
        <ele>2151.57</ele>
        <time>2017-11-22T09:17:00Z</time>
      </trkpt>
      <trkpt lat="44.91104" lon="6.72753">
        <ele>2151.57</ele>
        <time>2017-11-22T09:17:19Z</time>
      </trkpt>
      <trkpt lat="44.91097" lon="6.72748">
        <ele>2151.09</ele>
        <time>2017-11-22T09:17:32Z</time>
      </trkpt>
      <trkpt lat="44.91084" lon="6.72741">
        <ele>2150.61</ele>
        <time>2017-11-22T09:17:45Z</time>
      </trkpt>
      <trkpt lat="44.91067" lon="6.72732">
        <ele>2149.16</ele>
        <time>2017-11-22T09:17:59Z</time>
      </trkpt>
      <trkpt lat="44.91065" lon="6.7273">
        <ele>2148.68</ele>
        <time>2017-11-22T09:18:01Z</time>
      </trkpt>
      <trkpt lat="44.91058" lon="6.72727">
        <ele>2148.2</ele>
        <time>2017-11-22T09:18:08Z</time>
      </trkpt>
      <trkpt lat="44.91053" lon="6.72724">
        <ele>2148.2</ele>
        <time>2017-11-22T09:18:13Z</time>
      </trkpt>
      <trkpt lat="44.91049" lon="6.72722">
        <ele>2147.72</ele>
        <time>2017-11-22T09:18:17Z</time>
      </trkpt>
      <trkpt lat="44.91035" lon="6.72718">
        <ele>2147.24</ele>
        <time>2017-11-22T09:18:30Z</time>
      </trkpt>
      <trkpt lat="44.91016" lon="6.72711">
        <ele>2146.76</ele>
        <time>2017-11-22T09:18:47Z</time>
      </trkpt>
      <trkpt lat="44.91004" lon="6.72708">
        <ele>2146.28</ele>
        <time>2017-11-22T09:19:01Z</time>
      </trkpt>
      <trkpt lat="44.90996" lon="6.72706">
        <ele>2146.76</ele>
        <time>2017-11-22T09:19:15Z</time>
      </trkpt>
      <trkpt lat="44.9098" lon="6.72703">
        <ele>2146.76</ele>
        <time>2017-11-22T09:19:31Z</time>
      </trkpt>
      <trkpt lat="44.90966" lon="6.72698">
        <ele>2147.24</ele>
        <time>2017-11-22T09:19:46Z</time>
      </trkpt>
      <trkpt lat="44.90955" lon="6.72691">
        <ele>2147.24</ele>
        <time>2017-11-22T09:19:59Z</time>
      </trkpt>
      <trkpt lat="44.90942" lon="6.72683">
        <ele>2146.28</ele>
        <time>2017-11-22T09:20:13Z</time>
      </trkpt>
      <trkpt lat="44.90926" lon="6.72677">
        <ele>2144.36</ele>
        <time>2017-11-22T09:20:28Z</time>
      </trkpt>
      <trkpt lat="44.90918" lon="6.72671">
        <ele>2145.32</ele>
        <time>2017-11-22T09:20:46Z</time>
      </trkpt>
      <trkpt lat="44.90908" lon="6.72666">
        <ele>2145.8</ele>
        <time>2017-11-22T09:20:58Z</time>
      </trkpt>
      <trkpt lat="44.90896" lon="6.72662">
        <ele>2145.8</ele>
        <time>2017-11-22T09:21:15Z</time>
      </trkpt>
      <trkpt lat="44.90885" lon="6.72657">
        <ele>2145.8</ele>
        <time>2017-11-22T09:21:29Z</time>
      </trkpt>
      <trkpt lat="44.90872" lon="6.72653">
        <ele>2146.28</ele>
        <time>2017-11-22T09:21:45Z</time>
      </trkpt>
      <trkpt lat="44.90868" lon="6.72652">
        <ele>2146.28</ele>
        <time>2017-11-22T09:21:48Z</time>
      </trkpt>
      <trkpt lat="44.90857" lon="6.72651">
        <ele>2147.24</ele>
        <time>2017-11-22T09:22:02Z</time>
      </trkpt>
      <trkpt lat="44.90851" lon="6.72651">
        <ele>2147.72</ele>
        <time>2017-11-22T09:22:09Z</time>
      </trkpt>
      <trkpt lat="44.90837" lon="6.72648">
        <ele>2147.72</ele>
        <time>2017-11-22T09:22:24Z</time>
      </trkpt>
      <trkpt lat="44.90828" lon="6.72644">
        <ele>2149.16</ele>
        <time>2017-11-22T09:22:37Z</time>
      </trkpt>
      <trkpt lat="44.90825" lon="6.72642">
        <ele>2149.16</ele>
        <time>2017-11-22T09:22:41Z</time>
      </trkpt>
      <trkpt lat="44.90816" lon="6.72634">
        <ele>2150.13</ele>
        <time>2017-11-22T09:22:54Z</time>
      </trkpt>
      <trkpt lat="44.90808" lon="6.72624">
        <ele>2151.57</ele>
        <time>2017-11-22T09:23:08Z</time>
      </trkpt>
      <trkpt lat="44.908" lon="6.72618">
        <ele>2151.09</ele>
        <time>2017-11-22T09:23:20Z</time>
      </trkpt>
      <trkpt lat="44.90796" lon="6.72608">
        <ele>2151.09</ele>
        <time>2017-11-22T09:23:34Z</time>
      </trkpt>
      <trkpt lat="44.90792" lon="6.72604">
        <ele>2151.57</ele>
        <time>2017-11-22T09:23:43Z</time>
      </trkpt>
      <trkpt lat="44.90788" lon="6.72598">
        <ele>2152.05</ele>
        <time>2017-11-22T09:23:51Z</time>
      </trkpt>
      <trkpt lat="44.9078" lon="6.72586">
        <ele>2151.57</ele>
        <time>2017-11-22T09:24:04Z</time>
      </trkpt>
      <trkpt lat="44.90774" lon="6.72579">
        <ele>2151.09</ele>
        <time>2017-11-22T09:24:12Z</time>
      </trkpt>
      <trkpt lat="44.90767" lon="6.72573">
        <ele>2151.57</ele>
        <time>2017-11-22T09:24:19Z</time>
      </trkpt>
      <trkpt lat="44.90753" lon="6.72565">
        <ele>2151.09</ele>
        <time>2017-11-22T09:24:34Z</time>
      </trkpt>
      <trkpt lat="44.90743" lon="6.72563">
        <ele>2152.53</ele>
        <time>2017-11-22T09:24:49Z</time>
      </trkpt>
      <trkpt lat="44.90735" lon="6.72561">
        <ele>2153.49</ele>
        <time>2017-11-22T09:24:58Z</time>
      </trkpt>
      <trkpt lat="44.90729" lon="6.72552">
        <ele>2153.97</ele>
        <time>2017-11-22T09:25:12Z</time>
      </trkpt>
      <trkpt lat="44.90726" lon="6.72543">
        <ele>2155.41</ele>
        <time>2017-11-22T09:25:26Z</time>
      </trkpt>
      <trkpt lat="44.90722" lon="6.72532">
        <ele>2156.86</ele>
        <time>2017-11-22T09:25:40Z</time>
      </trkpt>
      <trkpt lat="44.90718" lon="6.72531">
        <ele>2157.34</ele>
        <time>2017-11-22T09:25:53Z</time>
      </trkpt>
      <trkpt lat="44.90715" lon="6.72531">
        <ele>2157.82</ele>
        <time>2017-11-22T09:26:06Z</time>
      </trkpt>
      <trkpt lat="44.90711" lon="6.72529">
        <ele>2158.3</ele>
        <time>2017-11-22T09:26:24Z</time>
      </trkpt>
      <trkpt lat="44.90706" lon="6.72528">
        <ele>2161.18</ele>
        <time>2017-11-22T09:26:39Z</time>
      </trkpt>
      <trkpt lat="44.90705" lon="6.72529">
        <ele>2159.26</ele>
        <time>2017-11-22T09:27:01Z</time>
      </trkpt>
      <trkpt lat="44.90705" lon="6.72531">
        <ele>2159.26</ele>
        <time>2017-11-22T09:27:18Z</time>
      </trkpt>
      <trkpt lat="44.90705" lon="6.72531">
        <ele>2159.26</ele>
        <time>2017-11-22T09:27:33Z</time>
      </trkpt>
      <trkpt lat="44.90705" lon="6.72527">
        <ele>2159.26</ele>
        <time>2017-11-22T09:27:53Z</time>
      </trkpt>
      <trkpt lat="44.90706" lon="6.72528">
        <ele>2159.74</ele>
        <time>2017-11-22T09:28:13Z</time>
      </trkpt>
      <trkpt lat="44.90701" lon="6.72527">
        <ele>2160.7</ele>
        <time>2017-11-22T09:28:30Z</time>
      </trkpt>
      <trkpt lat="44.90689" lon="6.72525">
        <ele>2162.62</ele>
        <time>2017-11-22T09:28:46Z</time>
      </trkpt>
      <trkpt lat="44.90685" lon="6.72525">
        <ele>2163.1</ele>
        <time>2017-11-22T09:28:59Z</time>
      </trkpt>
      <trkpt lat="44.9068" lon="6.72524">
        <ele>2163.58</ele>
        <time>2017-11-22T09:29:18Z</time>
      </trkpt>
      <trkpt lat="44.90671" lon="6.72522">
        <ele>2165.03</ele>
        <time>2017-11-22T09:29:31Z</time>
      </trkpt>
      <trkpt lat="44.90663" lon="6.7252">
        <ele>2165.51</ele>
        <time>2017-11-22T09:29:43Z</time>
      </trkpt>
      <trkpt lat="44.90653" lon="6.72519">
        <ele>2167.43</ele>
        <time>2017-11-22T09:29:58Z</time>
      </trkpt>
      <trkpt lat="44.90644" lon="6.72519">
        <ele>2168.87</ele>
        <time>2017-11-22T09:30:13Z</time>
      </trkpt>
      <trkpt lat="44.90636" lon="6.72519">
        <ele>2170.31</ele>
        <time>2017-11-22T09:30:26Z</time>
      </trkpt>
      <trkpt lat="44.90626" lon="6.72517">
        <ele>2172.24</ele>
        <time>2017-11-22T09:30:39Z</time>
      </trkpt>
      <trkpt lat="44.90617" lon="6.72515">
        <ele>2173.68</ele>
        <time>2017-11-22T09:30:53Z</time>
      </trkpt>
      <trkpt lat="44.9061" lon="6.72514">
        <ele>2174.64</ele>
        <time>2017-11-22T09:31:05Z</time>
      </trkpt>
      <trkpt lat="44.90601" lon="6.72511">
        <ele>2176.08</ele>
        <time>2017-11-22T09:31:20Z</time>
      </trkpt>
      <trkpt lat="44.90593" lon="6.72509">
        <ele>2177.52</ele>
        <time>2017-11-22T09:31:34Z</time>
      </trkpt>
      <trkpt lat="44.90584" lon="6.72507">
        <ele>2179.45</ele>
        <time>2017-11-22T09:31:49Z</time>
      </trkpt>
      <trkpt lat="44.90574" lon="6.72505">
        <ele>2180.89</ele>
        <time>2017-11-22T09:32:05Z</time>
      </trkpt>
      <trkpt lat="44.9057" lon="6.72503">
        <ele>2181.37</ele>
        <time>2017-11-22T09:32:11Z</time>
      </trkpt>
      <trkpt lat="44.90559" lon="6.72501">
        <ele>2182.81</ele>
        <time>2017-11-22T09:32:27Z</time>
      </trkpt>
      <trkpt lat="44.9055" lon="6.72498">
        <ele>2184.25</ele>
        <time>2017-11-22T09:32:41Z</time>
      </trkpt>
      <trkpt lat="44.90542" lon="6.72494">
        <ele>2185.69</ele>
        <time>2017-11-22T09:32:55Z</time>
      </trkpt>
      <trkpt lat="44.90534" lon="6.72492">
        <ele>2187.62</ele>
        <time>2017-11-22T09:33:10Z</time>
      </trkpt>
      <trkpt lat="44.90526" lon="6.72491">
        <ele>2188.58</ele>
        <time>2017-11-22T09:33:23Z</time>
      </trkpt>
      <trkpt lat="44.90516" lon="6.72488">
        <ele>2190.5</ele>
        <time>2017-11-22T09:33:38Z</time>
      </trkpt>
      <trkpt lat="44.90508" lon="6.72486">
        <ele>2191.46</ele>
        <time>2017-11-22T09:33:51Z</time>
      </trkpt>
      <trkpt lat="44.90497" lon="6.72484">
        <ele>2192.42</ele>
        <time>2017-11-22T09:34:06Z</time>
      </trkpt>
      <trkpt lat="44.90489" lon="6.72483">
        <ele>2194.35</ele>
        <time>2017-11-22T09:34:20Z</time>
      </trkpt>
      <trkpt lat="44.90482" lon="6.72481">
        <ele>2195.31</ele>
        <time>2017-11-22T09:34:34Z</time>
      </trkpt>
      <trkpt lat="44.90475" lon="6.7248">
        <ele>2196.27</ele>
        <time>2017-11-22T09:34:48Z</time>
      </trkpt>
      <trkpt lat="44.9047" lon="6.72478">
        <ele>2196.27</ele>
        <time>2017-11-22T09:35:01Z</time>
      </trkpt>
      <trkpt lat="44.90461" lon="6.72476">
        <ele>2197.23</ele>
        <time>2017-11-22T09:35:16Z</time>
      </trkpt>
      <trkpt lat="44.90452" lon="6.72476">
        <ele>2198.19</ele>
        <time>2017-11-22T09:35:31Z</time>
      </trkpt>
      <trkpt lat="44.90446" lon="6.72476">
        <ele>2197.23</ele>
        <time>2017-11-22T09:35:39Z</time>
      </trkpt>
      <trkpt lat="44.9044" lon="6.72474">
        <ele>2199.63</ele>
        <time>2017-11-22T09:35:51Z</time>
      </trkpt>
      <trkpt lat="44.9043" lon="6.72474">
        <ele>2200.11</ele>
        <time>2017-11-22T09:36:05Z</time>
      </trkpt>
      <trkpt lat="44.90421" lon="6.72473">
        <ele>2201.08</ele>
        <time>2017-11-22T09:36:19Z</time>
      </trkpt>
      <trkpt lat="44.90413" lon="6.72472">
        <ele>2202.52</ele>
        <time>2017-11-22T09:36:33Z</time>
      </trkpt>
      <trkpt lat="44.90403" lon="6.7247">
        <ele>2203.96</ele>
        <time>2017-11-22T09:36:48Z</time>
      </trkpt>
      <trkpt lat="44.90396" lon="6.72469">
        <ele>2204.92</ele>
        <time>2017-11-22T09:37:01Z</time>
      </trkpt>
      <trkpt lat="44.90385" lon="6.72468">
        <ele>2206.84</ele>
        <time>2017-11-22T09:37:19Z</time>
      </trkpt>
      <trkpt lat="44.90378" lon="6.72468">
        <ele>2208.29</ele>
        <time>2017-11-22T09:37:33Z</time>
      </trkpt>
      <trkpt lat="44.90371" lon="6.72466">
        <ele>2209.25</ele>
        <time>2017-11-22T09:37:47Z</time>
      </trkpt>
      <trkpt lat="44.9036" lon="6.72465">
        <ele>2210.21</ele>
        <time>2017-11-22T09:38:02Z</time>
      </trkpt>
      <trkpt lat="44.90355" lon="6.72465">
        <ele>2211.17</ele>
        <time>2017-11-22T09:38:12Z</time>
      </trkpt>
      <trkpt lat="44.90344" lon="6.72464">
        <ele>2212.61</ele>
        <time>2017-11-22T09:38:27Z</time>
      </trkpt>
      <trkpt lat="44.90342" lon="6.72464">
        <ele>2212.61</ele>
        <time>2017-11-22T09:38:31Z</time>
      </trkpt>
      <trkpt lat="44.90333" lon="6.72462">
        <ele>2214.53</ele>
        <time>2017-11-22T09:38:44Z</time>
      </trkpt>
      <trkpt lat="44.90326" lon="6.72461">
        <ele>2215.98</ele>
        <time>2017-11-22T09:38:56Z</time>
      </trkpt>
      <trkpt lat="44.90317" lon="6.72459">
        <ele>2217.42</ele>
        <time>2017-11-22T09:39:10Z</time>
      </trkpt>
      <trkpt lat="44.90311" lon="6.72457">
        <ele>2218.38</ele>
        <time>2017-11-22T09:39:22Z</time>
      </trkpt>
      <trkpt lat="44.90304" lon="6.72457">
        <ele>2219.82</ele>
        <time>2017-11-22T09:39:36Z</time>
      </trkpt>
      <trkpt lat="44.903" lon="6.72458">
        <ele>2219.82</ele>
        <time>2017-11-22T09:39:40Z</time>
      </trkpt>
      <trkpt lat="44.90289" lon="6.7246">
        <ele>2221.74</ele>
        <time>2017-11-22T09:39:58Z</time>
      </trkpt>
      <trkpt lat="44.9028" lon="6.7246">
        <ele>2222.71</ele>
        <time>2017-11-22T09:40:11Z</time>
      </trkpt>
      <trkpt lat="44.90272" lon="6.72458">
        <ele>2224.63</ele>
        <time>2017-11-22T09:40:26Z</time>
      </trkpt>
      <trkpt lat="44.90259" lon="6.72457">
        <ele>2226.07</ele>
        <time>2017-11-22T09:40:43Z</time>
      </trkpt>
      <trkpt lat="44.90248" lon="6.72457">
        <ele>2228.47</ele>
        <time>2017-11-22T09:41:00Z</time>
      </trkpt>
      <trkpt lat="44.90241" lon="6.72455">
        <ele>2229.43</ele>
        <time>2017-11-22T09:41:11Z</time>
      </trkpt>
      <trkpt lat="44.90233" lon="6.72451">
        <ele>2230.88</ele>
        <time>2017-11-22T09:41:24Z</time>
      </trkpt>
      <trkpt lat="44.90223" lon="6.72451">
        <ele>2232.32</ele>
        <time>2017-11-22T09:41:39Z</time>
      </trkpt>
      <trkpt lat="44.90219" lon="6.72452">
        <ele>2232.8</ele>
        <time>2017-11-22T09:41:50Z</time>
      </trkpt>
      <trkpt lat="44.90211" lon="6.72451">
        <ele>2234.24</ele>
        <time>2017-11-22T09:42:04Z</time>
      </trkpt>
      <trkpt lat="44.902" lon="6.7245">
        <ele>2235.68</ele>
        <time>2017-11-22T09:42:17Z</time>
      </trkpt>
      <trkpt lat="44.9019" lon="6.72447">
        <ele>2236.64</ele>
        <time>2017-11-22T09:42:31Z</time>
      </trkpt>
      <trkpt lat="44.90181" lon="6.72445">
        <ele>2238.09</ele>
        <time>2017-11-22T09:42:43Z</time>
      </trkpt>
      <trkpt lat="44.90171" lon="6.72443">
        <ele>2239.05</ele>
        <time>2017-11-22T09:42:56Z</time>
      </trkpt>
      <trkpt lat="44.90161" lon="6.7244">
        <ele>2240.01</ele>
        <time>2017-11-22T09:43:10Z</time>
      </trkpt>
      <trkpt lat="44.90151" lon="6.7244">
        <ele>2240.97</ele>
        <time>2017-11-22T09:43:22Z</time>
      </trkpt>
      <trkpt lat="44.90141" lon="6.72437">
        <ele>2241.93</ele>
        <time>2017-11-22T09:43:35Z</time>
      </trkpt>
      <trkpt lat="44.90131" lon="6.72435">
        <ele>2243.37</ele>
        <time>2017-11-22T09:43:49Z</time>
      </trkpt>
      <trkpt lat="44.9012" lon="6.72432">
        <ele>2244.82</ele>
        <time>2017-11-22T09:44:02Z</time>
      </trkpt>
      <trkpt lat="44.90111" lon="6.7243">
        <ele>2245.78</ele>
        <time>2017-11-22T09:44:15Z</time>
      </trkpt>
      <trkpt lat="44.90102" lon="6.72429">
        <ele>2247.22</ele>
        <time>2017-11-22T09:44:28Z</time>
      </trkpt>
      <trkpt lat="44.90092" lon="6.72425">
        <ele>2248.18</ele>
        <time>2017-11-22T09:44:42Z</time>
      </trkpt>
      <trkpt lat="44.90082" lon="6.72424">
        <ele>2249.14</ele>
        <time>2017-11-22T09:44:55Z</time>
      </trkpt>
      <trkpt lat="44.90072" lon="6.72421">
        <ele>2250.58</ele>
        <time>2017-11-22T09:45:09Z</time>
      </trkpt>
      <trkpt lat="44.90062" lon="6.7242">
        <ele>2251.54</ele>
        <time>2017-11-22T09:45:22Z</time>
      </trkpt>
      <trkpt lat="44.90053" lon="6.72419">
        <ele>2252.99</ele>
        <time>2017-11-22T09:45:34Z</time>
      </trkpt>
      <trkpt lat="44.90042" lon="6.72416">
        <ele>2253.95</ele>
        <time>2017-11-22T09:45:48Z</time>
      </trkpt>
      <trkpt lat="44.90041" lon="6.72416">
        <ele>2253.95</ele>
        <time>2017-11-22T09:45:50Z</time>
      </trkpt>
      <trkpt lat="44.90037" lon="6.72415">
        <ele>2254.91</ele>
        <time>2017-11-22T09:46:02Z</time>
      </trkpt>
      <trkpt lat="44.90035" lon="6.72415">
        <ele>2255.39</ele>
        <time>2017-11-22T09:46:18Z</time>
      </trkpt>
      <trkpt lat="44.90025" lon="6.72414">
        <ele>2256.83</ele>
        <time>2017-11-22T09:46:34Z</time>
      </trkpt>
      <trkpt lat="44.9002" lon="6.72413">
        <ele>2257.79</ele>
        <time>2017-11-22T09:46:42Z</time>
      </trkpt>
      <trkpt lat="44.90018" lon="6.72413">
        <ele>2258.27</ele>
        <time>2017-11-22T09:46:45Z</time>
      </trkpt>
      <trkpt lat="44.90008" lon="6.72411">
        <ele>2258.27</ele>
        <time>2017-11-22T09:46:57Z</time>
      </trkpt>
      <trkpt lat="44.89997" lon="6.72408">
        <ele>2259.24</ele>
        <time>2017-11-22T09:47:11Z</time>
      </trkpt>
      <trkpt lat="44.89987" lon="6.72406">
        <ele>2260.68</ele>
        <time>2017-11-22T09:47:25Z</time>
      </trkpt>
      <trkpt lat="44.89976" lon="6.72405">
        <ele>2261.64</ele>
        <time>2017-11-22T09:47:40Z</time>
      </trkpt>
      <trkpt lat="44.89966" lon="6.72403">
        <ele>2263.08</ele>
        <time>2017-11-22T09:47:54Z</time>
      </trkpt>
      <trkpt lat="44.89964" lon="6.72403">
        <ele>2263.56</ele>
        <time>2017-11-22T09:48:11Z</time>
      </trkpt>
      <trkpt lat="44.89956" lon="6.72402">
        <ele>2264.52</ele>
        <time>2017-11-22T09:48:22Z</time>
      </trkpt>
      <trkpt lat="44.89948" lon="6.72401">
        <ele>2265.96</ele>
        <time>2017-11-22T09:48:36Z</time>
      </trkpt>
      <trkpt lat="44.89935" lon="6.72398">
        <ele>2266.45</ele>
        <time>2017-11-22T09:48:50Z</time>
      </trkpt>
      <trkpt lat="44.89923" lon="6.72394">
        <ele>2267.41</ele>
        <time>2017-11-22T09:49:05Z</time>
      </trkpt>
      <trkpt lat="44.89912" lon="6.72389">
        <ele>2268.37</ele>
        <time>2017-11-22T09:49:22Z</time>
      </trkpt>
      <trkpt lat="44.89902" lon="6.72386">
        <ele>2269.33</ele>
        <time>2017-11-22T09:49:36Z</time>
      </trkpt>
      <trkpt lat="44.89891" lon="6.72383">
        <ele>2271.25</ele>
        <time>2017-11-22T09:49:51Z</time>
      </trkpt>
      <trkpt lat="44.89882" lon="6.7238">
        <ele>2272.21</ele>
        <time>2017-11-22T09:50:06Z</time>
      </trkpt>
      <trkpt lat="44.89878" lon="6.72379">
        <ele>2272.69</ele>
        <time>2017-11-22T09:50:11Z</time>
      </trkpt>
      <trkpt lat="44.89875" lon="6.72378">
        <ele>2273.17</ele>
        <time>2017-11-22T09:50:15Z</time>
      </trkpt>
      <trkpt lat="44.89864" lon="6.7237">
        <ele>2273.66</ele>
        <time>2017-11-22T09:50:31Z</time>
      </trkpt>
      <trkpt lat="44.89853" lon="6.72363">
        <ele>2275.1</ele>
        <time>2017-11-22T09:50:46Z</time>
      </trkpt>
      <trkpt lat="44.89843" lon="6.72357">
        <ele>2276.06</ele>
        <time>2017-11-22T09:51:01Z</time>
      </trkpt>
      <trkpt lat="44.89834" lon="6.72349">
        <ele>2277.5</ele>
        <time>2017-11-22T09:51:17Z</time>
      </trkpt>
      <trkpt lat="44.89826" lon="6.7234">
        <ele>2278.46</ele>
        <time>2017-11-22T09:51:33Z</time>
      </trkpt>
      <trkpt lat="44.89817" lon="6.72331">
        <ele>2279.9</ele>
        <time>2017-11-22T09:51:48Z</time>
      </trkpt>
      <trkpt lat="44.89812" lon="6.72324">
        <ele>2280.87</ele>
        <time>2017-11-22T09:52:02Z</time>
      </trkpt>
      <trkpt lat="44.89808" lon="6.72322">
        <ele>2281.35</ele>
        <time>2017-11-22T09:52:19Z</time>
      </trkpt>
      <trkpt lat="44.89804" lon="6.72321">
        <ele>2281.35</ele>
        <time>2017-11-22T09:52:31Z</time>
      </trkpt>
      <trkpt lat="44.89797" lon="6.72313">
        <ele>2283.75</ele>
        <time>2017-11-22T09:52:46Z</time>
      </trkpt>
      <trkpt lat="44.89789" lon="6.72304">
        <ele>2285.19</ele>
        <time>2017-11-22T09:53:01Z</time>
      </trkpt>
      <trkpt lat="44.89781" lon="6.72297">
        <ele>2286.15</ele>
        <time>2017-11-22T09:53:17Z</time>
      </trkpt>
      <trkpt lat="44.89778" lon="6.72293">
        <ele>2287.59</ele>
        <time>2017-11-22T09:53:28Z</time>
      </trkpt>
      <trkpt lat="44.8977" lon="6.72285">
        <ele>2289.04</ele>
        <time>2017-11-22T09:53:45Z</time>
      </trkpt>
      <trkpt lat="44.89763" lon="6.7228">
        <ele>2292.4</ele>
        <time>2017-11-22T09:53:58Z</time>
      </trkpt>
      <trkpt lat="44.89755" lon="6.72274">
        <ele>2291.44</ele>
        <time>2017-11-22T09:54:14Z</time>
      </trkpt>
      <trkpt lat="44.89749" lon="6.72265">
        <ele>2292.88</ele>
        <time>2017-11-22T09:54:29Z</time>
      </trkpt>
      <trkpt lat="44.89739" lon="6.72258">
        <ele>2294.32</ele>
        <time>2017-11-22T09:54:47Z</time>
      </trkpt>
      <trkpt lat="44.8973" lon="6.7225">
        <ele>2296.25</ele>
        <time>2017-11-22T09:55:05Z</time>
      </trkpt>
      <trkpt lat="44.89725" lon="6.72244">
        <ele>2297.69</ele>
        <time>2017-11-22T09:55:20Z</time>
      </trkpt>
      <trkpt lat="44.89716" lon="6.72236">
        <ele>2299.61</ele>
        <time>2017-11-22T09:55:40Z</time>
      </trkpt>
      <trkpt lat="44.89708" lon="6.72224">
        <ele>2303.94</ele>
        <time>2017-11-22T09:55:59Z</time>
      </trkpt>
      <trkpt lat="44.89701" lon="6.72218">
        <ele>2304.9</ele>
        <time>2017-11-22T09:56:16Z</time>
      </trkpt>
      <trkpt lat="44.89693" lon="6.72212">
        <ele>2306.34</ele>
        <time>2017-11-22T09:56:36Z</time>
      </trkpt>
      <trkpt lat="44.8969" lon="6.72209">
        <ele>2306.82</ele>
        <time>2017-11-22T09:56:51Z</time>
      </trkpt>
      <trkpt lat="44.89688" lon="6.72207">
        <ele>2307.78</ele>
        <time>2017-11-22T09:57:04Z</time>
      </trkpt>
      <trkpt lat="44.89683" lon="6.72203">
        <ele>2309.22</ele>
        <time>2017-11-22T09:57:16Z</time>
      </trkpt>
      <trkpt lat="44.89677" lon="6.72195">
        <ele>2311.15</ele>
        <time>2017-11-22T09:57:32Z</time>
      </trkpt>
      <trkpt lat="44.89672" lon="6.72191">
        <ele>2312.59</ele>
        <time>2017-11-22T09:57:47Z</time>
      </trkpt>
      <trkpt lat="44.89667" lon="6.72185">
        <ele>2315.95</ele>
        <time>2017-11-22T09:58:00Z</time>
      </trkpt>
      <trkpt lat="44.89663" lon="6.72181">
        <ele>2314.99</ele>
        <time>2017-11-22T09:58:13Z</time>
      </trkpt>
      <trkpt lat="44.89657" lon="6.72174">
        <ele>2315.95</ele>
        <time>2017-11-22T09:58:27Z</time>
      </trkpt>
      <trkpt lat="44.89648" lon="6.72164">
        <ele>2316.91</ele>
        <time>2017-11-22T09:58:41Z</time>
      </trkpt>
      <trkpt lat="44.89641" lon="6.72156">
        <ele>2317.88</ele>
        <time>2017-11-22T09:58:56Z</time>
      </trkpt>
      <trkpt lat="44.89635" lon="6.72148">
        <ele>2319.8</ele>
        <time>2017-11-22T09:59:12Z</time>
      </trkpt>
      <trkpt lat="44.89631" lon="6.72142">
        <ele>2322.2</ele>
        <time>2017-11-22T09:59:27Z</time>
      </trkpt>
      <trkpt lat="44.89625" lon="6.72134">
        <ele>2323.64</ele>
        <time>2017-11-22T09:59:44Z</time>
      </trkpt>
      <trkpt lat="44.89622" lon="6.72126">
        <ele>2326.05</ele>
        <time>2017-11-22T09:59:59Z</time>
      </trkpt>
      <trkpt lat="44.89619" lon="6.72116">
        <ele>2327.97</ele>
        <time>2017-11-22T10:00:16Z</time>
      </trkpt>
      <trkpt lat="44.89616" lon="6.72106">
        <ele>2329.41</ele>
        <time>2017-11-22T10:00:34Z</time>
      </trkpt>
      <trkpt lat="44.89611" lon="6.72095">
        <ele>2330.85</ele>
        <time>2017-11-22T10:00:52Z</time>
      </trkpt>
      <trkpt lat="44.89609" lon="6.72087">
        <ele>2332.3</ele>
        <time>2017-11-22T10:01:09Z</time>
      </trkpt>
      <trkpt lat="44.89604" lon="6.72077">
        <ele>2333.74</ele>
        <time>2017-11-22T10:01:26Z</time>
      </trkpt>
      <trkpt lat="44.89602" lon="6.72069">
        <ele>2335.18</ele>
        <time>2017-11-22T10:01:42Z</time>
      </trkpt>
      <trkpt lat="44.89598" lon="6.72059">
        <ele>2337.1</ele>
        <time>2017-11-22T10:02:00Z</time>
      </trkpt>
      <trkpt lat="44.89596" lon="6.72052">
        <ele>2338.54</ele>
        <time>2017-11-22T10:02:15Z</time>
      </trkpt>
      <trkpt lat="44.89592" lon="6.72042">
        <ele>2340.47</ele>
        <time>2017-11-22T10:02:31Z</time>
      </trkpt>
      <trkpt lat="44.89589" lon="6.72033">
        <ele>2342.39</ele>
        <time>2017-11-22T10:02:49Z</time>
      </trkpt>
      <trkpt lat="44.89587" lon="6.72024">
        <ele>2343.83</ele>
        <time>2017-11-22T10:03:04Z</time>
      </trkpt>
      <trkpt lat="44.89586" lon="6.72017">
        <ele>2345.75</ele>
        <time>2017-11-22T10:03:18Z</time>
      </trkpt>
      <trkpt lat="44.89583" lon="6.72007">
        <ele>2347.68</ele>
        <time>2017-11-22T10:03:35Z</time>
      </trkpt>
      <trkpt lat="44.89582" lon="6.71999">
        <ele>2350.08</ele>
        <time>2017-11-22T10:03:53Z</time>
      </trkpt>
      <trkpt lat="44.89581" lon="6.71991">
        <ele>2351.52</ele>
        <time>2017-11-22T10:04:07Z</time>
      </trkpt>
      <trkpt lat="44.89579" lon="6.7198">
        <ele>2353.44</ele>
        <time>2017-11-22T10:04:25Z</time>
      </trkpt>
      <trkpt lat="44.89579" lon="6.71977">
        <ele>2353.44</ele>
        <time>2017-11-22T10:04:42Z</time>
      </trkpt>
      <trkpt lat="44.89576" lon="6.71969">
        <ele>2355.37</ele>
        <time>2017-11-22T10:04:57Z</time>
      </trkpt>
      <trkpt lat="44.89574" lon="6.7196">
        <ele>2356.81</ele>
        <time>2017-11-22T10:05:13Z</time>
      </trkpt>
      <trkpt lat="44.89571" lon="6.71952">
        <ele>2358.25</ele>
        <time>2017-11-22T10:05:28Z</time>
      </trkpt>
      <trkpt lat="44.89568" lon="6.71944">
        <ele>2359.69</ele>
        <time>2017-11-22T10:05:44Z</time>
      </trkpt>
      <trkpt lat="44.89565" lon="6.71934">
        <ele>2361.14</ele>
        <time>2017-11-22T10:06:00Z</time>
      </trkpt>
      <trkpt lat="44.89561" lon="6.71927">
        <ele>2362.58</ele>
        <time>2017-11-22T10:06:17Z</time>
      </trkpt>
      <trkpt lat="44.89555" lon="6.71917">
        <ele>2364.5</ele>
        <time>2017-11-22T10:06:32Z</time>
      </trkpt>
      <trkpt lat="44.8955" lon="6.71908">
        <ele>2365.94</ele>
        <time>2017-11-22T10:06:51Z</time>
      </trkpt>
      <trkpt lat="44.89545" lon="6.71898">
        <ele>2366.9</ele>
        <time>2017-11-22T10:07:06Z</time>
      </trkpt>
      <trkpt lat="44.89542" lon="6.71892">
        <ele>2368.35</ele>
        <time>2017-11-22T10:07:20Z</time>
      </trkpt>
      <trkpt lat="44.89537" lon="6.71883">
        <ele>2369.79</ele>
        <time>2017-11-22T10:07:36Z</time>
      </trkpt>
      <trkpt lat="44.89534" lon="6.71874">
        <ele>2371.71</ele>
        <time>2017-11-22T10:07:54Z</time>
      </trkpt>
      <trkpt lat="44.89526" lon="6.71864">
        <ele>2373.15</ele>
        <time>2017-11-22T10:08:11Z</time>
      </trkpt>
      <trkpt lat="44.8952" lon="6.71852">
        <ele>2375.07</ele>
        <time>2017-11-22T10:08:31Z</time>
      </trkpt>
      <trkpt lat="44.89516" lon="6.71845">
        <ele>2377</ele>
        <time>2017-11-22T10:08:48Z</time>
      </trkpt>
      <trkpt lat="44.89512" lon="6.7184">
        <ele>2379.4</ele>
        <time>2017-11-22T10:09:03Z</time>
      </trkpt>
      <trkpt lat="44.8951" lon="6.71833">
        <ele>2380.84</ele>
        <time>2017-11-22T10:09:18Z</time>
      </trkpt>
      <trkpt lat="44.89509" lon="6.71825">
        <ele>2382.76</ele>
        <time>2017-11-22T10:09:33Z</time>
      </trkpt>
      <trkpt lat="44.89509" lon="6.71815">
        <ele>2384.69</ele>
        <time>2017-11-22T10:09:50Z</time>
      </trkpt>
      <trkpt lat="44.89507" lon="6.71805">
        <ele>2388.05</ele>
        <time>2017-11-22T10:10:07Z</time>
      </trkpt>
      <trkpt lat="44.89506" lon="6.71798">
        <ele>2388.05</ele>
        <time>2017-11-22T10:10:22Z</time>
      </trkpt>
      <trkpt lat="44.89504" lon="6.71788">
        <ele>2389.97</ele>
        <time>2017-11-22T10:10:37Z</time>
      </trkpt>
      <trkpt lat="44.89503" lon="6.7178">
        <ele>2391.9</ele>
        <time>2017-11-22T10:10:52Z</time>
      </trkpt>
      <trkpt lat="44.89502" lon="6.7177">
        <ele>2393.34</ele>
        <time>2017-11-22T10:11:06Z</time>
      </trkpt>
      <trkpt lat="44.895" lon="6.71761">
        <ele>2394.78</ele>
        <time>2017-11-22T10:11:21Z</time>
      </trkpt>
      <trkpt lat="44.89497" lon="6.71749">
        <ele>2396.7</ele>
        <time>2017-11-22T10:11:40Z</time>
      </trkpt>
      <trkpt lat="44.89493" lon="6.71739">
        <ele>2398.15</ele>
        <time>2017-11-22T10:11:56Z</time>
      </trkpt>
      <trkpt lat="44.8949" lon="6.71727">
        <ele>2399.11</ele>
        <time>2017-11-22T10:12:11Z</time>
      </trkpt>
      <trkpt lat="44.89487" lon="6.71716">
        <ele>2400.07</ele>
        <time>2017-11-22T10:12:26Z</time>
      </trkpt>
      <trkpt lat="44.89483" lon="6.71704">
        <ele>2401.03</ele>
        <time>2017-11-22T10:12:40Z</time>
      </trkpt>
      <trkpt lat="44.8948" lon="6.7169">
        <ele>2402.95</ele>
        <time>2017-11-22T10:12:57Z</time>
      </trkpt>
      <trkpt lat="44.89476" lon="6.71682">
        <ele>2404.88</ele>
        <time>2017-11-22T10:13:13Z</time>
      </trkpt>
      <trkpt lat="44.89474" lon="6.71672">
        <ele>2406.32</ele>
        <time>2017-11-22T10:13:26Z</time>
      </trkpt>
      <trkpt lat="44.89472" lon="6.71664">
        <ele>2408.24</ele>
        <time>2017-11-22T10:13:41Z</time>
      </trkpt>
      <trkpt lat="44.8947" lon="6.71653">
        <ele>2409.68</ele>
        <time>2017-11-22T10:13:56Z</time>
      </trkpt>
      <trkpt lat="44.89469" lon="6.71642">
        <ele>2411.12</ele>
        <time>2017-11-22T10:14:12Z</time>
      </trkpt>
      <trkpt lat="44.89468" lon="6.71634">
        <ele>2413.05</ele>
        <time>2017-11-22T10:14:25Z</time>
      </trkpt>
      <trkpt lat="44.89463" lon="6.71628">
        <ele>2414.49</ele>
        <time>2017-11-22T10:14:40Z</time>
      </trkpt>
      <trkpt lat="44.89463" lon="6.71623">
        <ele>2415.93</ele>
        <time>2017-11-22T10:14:56Z</time>
      </trkpt>
      <trkpt lat="44.89462" lon="6.71614">
        <ele>2417.37</ele>
        <time>2017-11-22T10:15:10Z</time>
      </trkpt>
      <trkpt lat="44.89461" lon="6.71606">
        <ele>2419.3</ele>
        <time>2017-11-22T10:15:24Z</time>
      </trkpt>
      <trkpt lat="44.89459" lon="6.71596">
        <ele>2420.26</ele>
        <time>2017-11-22T10:15:39Z</time>
      </trkpt>
      <trkpt lat="44.8946" lon="6.71584">
        <ele>2422.66</ele>
        <time>2017-11-22T10:15:57Z</time>
      </trkpt>
      <trkpt lat="44.89462" lon="6.71577">
        <ele>2426.02</ele>
        <time>2017-11-22T10:16:11Z</time>
      </trkpt>
      <trkpt lat="44.89459" lon="6.7157">
        <ele>2426.5</ele>
        <time>2017-11-22T10:16:27Z</time>
      </trkpt>
      <trkpt lat="44.89454" lon="6.71559">
        <ele>2429.39</ele>
        <time>2017-11-22T10:16:47Z</time>
      </trkpt>
      <trkpt lat="44.89451" lon="6.71551">
        <ele>2430.83</ele>
        <time>2017-11-22T10:17:03Z</time>
      </trkpt>
      <trkpt lat="44.89446" lon="6.71544">
        <ele>2432.27</ele>
        <time>2017-11-22T10:17:18Z</time>
      </trkpt>
      <trkpt lat="44.89442" lon="6.71538">
        <ele>2435.16</ele>
        <time>2017-11-22T10:17:36Z</time>
      </trkpt>
      <trkpt lat="44.89437" lon="6.71532">
        <ele>2436.6</ele>
        <time>2017-11-22T10:17:52Z</time>
      </trkpt>
      <trkpt lat="44.89433" lon="6.71527">
        <ele>2438.04</ele>
        <time>2017-11-22T10:18:07Z</time>
      </trkpt>
      <trkpt lat="44.89426" lon="6.71522">
        <ele>2440.44</ele>
        <time>2017-11-22T10:18:25Z</time>
      </trkpt>
      <trkpt lat="44.89422" lon="6.71516">
        <ele>2442.37</ele>
        <time>2017-11-22T10:18:43Z</time>
      </trkpt>
      <trkpt lat="44.89419" lon="6.71509">
        <ele>2444.77</ele>
        <time>2017-11-22T10:19:00Z</time>
      </trkpt>
      <trkpt lat="44.89415" lon="6.715">
        <ele>2447.17</ele>
        <time>2017-11-22T10:19:19Z</time>
      </trkpt>
      <trkpt lat="44.89412" lon="6.71491">
        <ele>2448.62</ele>
        <time>2017-11-22T10:19:35Z</time>
      </trkpt>
      <trkpt lat="44.89408" lon="6.71483">
        <ele>2450.06</ele>
        <time>2017-11-22T10:19:50Z</time>
      </trkpt>
      <trkpt lat="44.89404" lon="6.71474">
        <ele>2451.5</ele>
        <time>2017-11-22T10:20:04Z</time>
      </trkpt>
      <trkpt lat="44.894" lon="6.7147">
        <ele>2452.94</ele>
        <time>2017-11-22T10:20:19Z</time>
      </trkpt>
      <trkpt lat="44.89393" lon="6.71468">
        <ele>2455.34</ele>
        <time>2017-11-22T10:20:38Z</time>
      </trkpt>
      <trkpt lat="44.89388" lon="6.71462">
        <ele>2457.27</ele>
        <time>2017-11-22T10:20:55Z</time>
      </trkpt>
      <trkpt lat="44.89386" lon="6.71453">
        <ele>2458.71</ele>
        <time>2017-11-22T10:21:09Z</time>
      </trkpt>
      <trkpt lat="44.89385" lon="6.71443">
        <ele>2459.67</ele>
        <time>2017-11-22T10:21:24Z</time>
      </trkpt>
      <trkpt lat="44.89387" lon="6.71431">
        <ele>2460.15</ele>
        <time>2017-11-22T10:21:39Z</time>
      </trkpt>
      <trkpt lat="44.89385" lon="6.71424">
        <ele>2460.15</ele>
        <time>2017-11-22T10:21:57Z</time>
      </trkpt>
      <trkpt lat="44.89381" lon="6.71413">
        <ele>2460.15</ele>
        <time>2017-11-22T10:22:12Z</time>
      </trkpt>
      <trkpt lat="44.89382" lon="6.71412">
        <ele>2460.15</ele>
        <time>2017-11-22T10:22:28Z</time>
      </trkpt>
      <trkpt lat="44.89381" lon="6.71413">
        <ele>2460.15</ele>
        <time>2017-11-22T10:22:45Z</time>
      </trkpt>
      <trkpt lat="44.89382" lon="6.71411">
        <ele>2459.67</ele>
        <time>2017-11-22T10:22:56Z</time>
      </trkpt>
      <trkpt lat="44.89381" lon="6.71411">
        <ele>2458.71</ele>
        <time>2017-11-22T10:23:16Z</time>
      </trkpt>
      <trkpt lat="44.89382" lon="6.7141">
        <ele>2458.71</ele>
        <time>2017-11-22T10:23:52Z</time>
      </trkpt>
      <trkpt lat="44.89382" lon="6.71411">
        <ele>2458.71</ele>
        <time>2017-11-22T10:24:23Z</time>
      </trkpt>
      <trkpt lat="44.89382" lon="6.71411">
        <ele>2459.19</ele>
        <time>2017-11-22T10:24:55Z</time>
      </trkpt>
      <trkpt lat="44.8938" lon="6.71408">
        <ele>2459.19</ele>
        <time>2017-11-22T10:25:28Z</time>
      </trkpt>
      <trkpt lat="44.89381" lon="6.71408">
        <ele>2459.19</ele>
        <time>2017-11-22T10:25:56Z</time>
      </trkpt>
      <trkpt lat="44.89381" lon="6.71408">
        <ele>2459.19</ele>
        <time>2017-11-22T10:26:26Z</time>
      </trkpt>
      <trkpt lat="44.89381" lon="6.71409">
        <ele>2459.67</ele>
        <time>2017-11-22T10:26:58Z</time>
      </trkpt>
      <trkpt lat="44.89381" lon="6.71408">
        <ele>2459.67</ele>
        <time>2017-11-22T10:27:35Z</time>
      </trkpt>
      <trkpt lat="44.8938" lon="6.71409">
        <ele>2459.67</ele>
        <time>2017-11-22T10:28:11Z</time>
      </trkpt>
      <trkpt lat="44.89381" lon="6.71409">
        <ele>2460.15</ele>
        <time>2017-11-22T10:28:52Z</time>
      </trkpt>
      <trkpt lat="44.8938" lon="6.71407">
        <ele>2460.63</ele>
        <time>2017-11-22T10:29:27Z</time>
      </trkpt>
      <trkpt lat="44.8938" lon="6.71408">
        <ele>2460.63</ele>
        <time>2017-11-22T10:29:57Z</time>
      </trkpt>
      <trkpt lat="44.89381" lon="6.71409">
        <ele>2460.63</ele>
        <time>2017-11-22T10:30:25Z</time>
      </trkpt>
      <trkpt lat="44.89382" lon="6.7141">
        <ele>2461.11</ele>
        <time>2017-11-22T10:30:55Z</time>
      </trkpt>
      <trkpt lat="44.89382" lon="6.7141">
        <ele>2461.59</ele>
        <time>2017-11-22T10:31:27Z</time>
      </trkpt>
      <trkpt lat="44.89382" lon="6.71412">
        <ele>2461.59</ele>
        <time>2017-11-22T10:32:01Z</time>
      </trkpt>
      <trkpt lat="44.89381" lon="6.71414">
        <ele>2462.07</ele>
        <time>2017-11-22T10:32:34Z</time>
      </trkpt>
      <trkpt lat="44.89381" lon="6.71413">
        <ele>2462.07</ele>
        <time>2017-11-22T10:33:04Z</time>
      </trkpt>
      <trkpt lat="44.8938" lon="6.71411">
        <ele>2462.07</ele>
        <time>2017-11-22T10:33:27Z</time>
      </trkpt>
      <trkpt lat="44.8938" lon="6.71409">
        <ele>2462.55</ele>
        <time>2017-11-22T10:34:01Z</time>
      </trkpt>
      <trkpt lat="44.89381" lon="6.7141">
        <ele>2462.55</ele>
        <time>2017-11-22T10:34:29Z</time>
      </trkpt>
      <trkpt lat="44.8938" lon="6.71411">
        <ele>2462.55</ele>
        <time>2017-11-22T10:34:56Z</time>
      </trkpt>
      <trkpt lat="44.8938" lon="6.71412">
        <ele>2462.07</ele>
        <time>2017-11-22T10:35:31Z</time>
      </trkpt>
      <trkpt lat="44.89381" lon="6.71411">
        <ele>2462.07</ele>
        <time>2017-11-22T10:36:09Z</time>
      </trkpt>
      <trkpt lat="44.89381" lon="6.7141">
        <ele>2462.07</ele>
        <time>2017-11-22T10:36:41Z</time>
      </trkpt>
      <trkpt lat="44.89381" lon="6.71412">
        <ele>2462.55</ele>
        <time>2017-11-22T10:37:11Z</time>
      </trkpt>
      <trkpt lat="44.89381" lon="6.71412">
        <ele>2462.55</ele>
        <time>2017-11-22T10:37:34Z</time>
      </trkpt>
      <trkpt lat="44.89381" lon="6.71412">
        <ele>2462.55</ele>
        <time>2017-11-22T10:38:11Z</time>
      </trkpt>
      <trkpt lat="44.89381" lon="6.71413">
        <ele>2462.55</ele>
        <time>2017-11-22T10:38:43Z</time>
      </trkpt>
      <trkpt lat="44.89382" lon="6.71413">
        <ele>2463.04</ele>
        <time>2017-11-22T10:39:24Z</time>
      </trkpt>
      <trkpt lat="44.89382" lon="6.71413">
        <ele>2463.04</ele>
        <time>2017-11-22T10:39:59Z</time>
      </trkpt>
      <trkpt lat="44.89382" lon="6.71413">
        <ele>2463.04</ele>
        <time>2017-11-22T10:40:30Z</time>
      </trkpt>
      <trkpt lat="44.89382" lon="6.71412">
        <ele>2463.04</ele>
        <time>2017-11-22T10:41:00Z</time>
      </trkpt>
      <trkpt lat="44.89382" lon="6.71412">
        <ele>2463.04</ele>
        <time>2017-11-22T10:41:28Z</time>
      </trkpt>
      <trkpt lat="44.89382" lon="6.71413">
        <ele>2463.52</ele>
        <time>2017-11-22T10:42:02Z</time>
      </trkpt>
      <trkpt lat="44.89382" lon="6.71414">
        <ele>2463.52</ele>
        <time>2017-11-22T10:42:40Z</time>
      </trkpt>
      <trkpt lat="44.89381" lon="6.71415">
        <ele>2463.52</ele>
        <time>2017-11-22T10:43:13Z</time>
      </trkpt>
      <trkpt lat="44.89382" lon="6.71414">
        <ele>2463.52</ele>
        <time>2017-11-22T10:43:44Z</time>
      </trkpt>
      <trkpt lat="44.89382" lon="6.71413">
        <ele>2464</ele>
        <time>2017-11-22T10:44:18Z</time>
      </trkpt>
      <trkpt lat="44.89381" lon="6.71413">
        <ele>2464</ele>
        <time>2017-11-22T10:44:50Z</time>
      </trkpt>
      <trkpt lat="44.89382" lon="6.71412">
        <ele>2464</ele>
        <time>2017-11-22T10:45:24Z</time>
      </trkpt>
      <trkpt lat="44.89382" lon="6.71413">
        <ele>2464.48</ele>
        <time>2017-11-22T10:46:01Z</time>
      </trkpt>
      <trkpt lat="44.89382" lon="6.71413">
        <ele>2464.48</ele>
        <time>2017-11-22T10:46:42Z</time>
      </trkpt>
      <trkpt lat="44.89381" lon="6.71413">
        <ele>2464.48</ele>
        <time>2017-11-22T10:47:07Z</time>
      </trkpt>
      <trkpt lat="44.89381" lon="6.71414">
        <ele>2464.48</ele>
        <time>2017-11-22T10:47:35Z</time>
      </trkpt>
      <trkpt lat="44.89381" lon="6.71415">
        <ele>2464.48</ele>
        <time>2017-11-22T10:48:01Z</time>
      </trkpt>
      <trkpt lat="44.89382" lon="6.71414">
        <ele>2464.48</ele>
        <time>2017-11-22T10:48:33Z</time>
      </trkpt>
      <trkpt lat="44.89382" lon="6.71412">
        <ele>2464.48</ele>
        <time>2017-11-22T10:49:07Z</time>
      </trkpt>
      <trkpt lat="44.89381" lon="6.71411">
        <ele>2464.48</ele>
        <time>2017-11-22T10:49:33Z</time>
      </trkpt>
      <trkpt lat="44.89381" lon="6.71411">
        <ele>2464.48</ele>
        <time>2017-11-22T10:50:11Z</time>
      </trkpt>
      <trkpt lat="44.89381" lon="6.71411">
        <ele>2464.48</ele>
        <time>2017-11-22T10:50:39Z</time>
      </trkpt>
      <trkpt lat="44.89381" lon="6.71411">
        <ele>2464.48</ele>
        <time>2017-11-22T10:51:08Z</time>
      </trkpt>
      <trkpt lat="44.89381" lon="6.71412">
        <ele>2464.48</ele>
        <time>2017-11-22T10:51:34Z</time>
      </trkpt>
      <trkpt lat="44.8938" lon="6.71411">
        <ele>2464.48</ele>
        <time>2017-11-22T10:52:13Z</time>
      </trkpt>
      <trkpt lat="44.89381" lon="6.71411">
        <ele>2464.48</ele>
        <time>2017-11-22T10:52:52Z</time>
      </trkpt>
      <trkpt lat="44.89381" lon="6.71412">
        <ele>2464</ele>
        <time>2017-11-22T10:53:26Z</time>
      </trkpt>
      <trkpt lat="44.89381" lon="6.71411">
        <ele>2464</ele>
        <time>2017-11-22T10:53:56Z</time>
      </trkpt>
      <trkpt lat="44.89382" lon="6.71412">
        <ele>2464</ele>
        <time>2017-11-22T10:54:31Z</time>
      </trkpt>
      <trkpt lat="44.89382" lon="6.71413">
        <ele>2464</ele>
        <time>2017-11-22T10:54:57Z</time>
      </trkpt>
      <trkpt lat="44.89382" lon="6.71411">
        <ele>2464</ele>
        <time>2017-11-22T10:55:26Z</time>
      </trkpt>
      <trkpt lat="44.89382" lon="6.71412">
        <ele>2464</ele>
        <time>2017-11-22T10:56:01Z</time>
      </trkpt>
      <trkpt lat="44.89381" lon="6.71412">
        <ele>2464</ele>
        <time>2017-11-22T10:56:35Z</time>
      </trkpt>
      <trkpt lat="44.89382" lon="6.71412">
        <ele>2464</ele>
        <time>2017-11-22T10:57:08Z</time>
      </trkpt>
      <trkpt lat="44.89382" lon="6.71413">
        <ele>2464</ele>
        <time>2017-11-22T10:57:45Z</time>
      </trkpt>
      <trkpt lat="44.89383" lon="6.71412">
        <ele>2464</ele>
        <time>2017-11-22T10:58:18Z</time>
      </trkpt>
      <trkpt lat="44.89383" lon="6.71413">
        <ele>2463.52</ele>
        <time>2017-11-22T10:59:02Z</time>
      </trkpt>
      <trkpt lat="44.89381" lon="6.71412">
        <ele>2463.52</ele>
        <time>2017-11-22T10:59:43Z</time>
      </trkpt>
      <trkpt lat="44.89382" lon="6.71412">
        <ele>2464</ele>
        <time>2017-11-22T11:00:19Z</time>
      </trkpt>
      <trkpt lat="44.89383" lon="6.71412">
        <ele>2463.52</ele>
        <time>2017-11-22T11:01:03Z</time>
      </trkpt>
      <trkpt lat="44.89382" lon="6.71412">
        <ele>2463.52</ele>
        <time>2017-11-22T11:01:53Z</time>
      </trkpt>
      <trkpt lat="44.89382" lon="6.71412">
        <ele>2464</ele>
        <time>2017-11-22T11:02:39Z</time>
      </trkpt>
      <trkpt lat="44.89382" lon="6.71412">
        <ele>2464</ele>
        <time>2017-11-22T11:03:14Z</time>
      </trkpt>
      <trkpt lat="44.89381" lon="6.71412">
        <ele>2464</ele>
        <time>2017-11-22T11:03:49Z</time>
      </trkpt>
      <trkpt lat="44.89381" lon="6.71412">
        <ele>2464</ele>
        <time>2017-11-22T11:04:21Z</time>
      </trkpt>
      <trkpt lat="44.8938" lon="6.7141">
        <ele>2464</ele>
        <time>2017-11-22T11:04:57Z</time>
      </trkpt>
      <trkpt lat="44.89381" lon="6.7141">
        <ele>2464.96</ele>
        <time>2017-11-22T11:05:16Z</time>
      </trkpt>
      <trkpt lat="44.89382" lon="6.71411">
        <ele>2465.44</ele>
        <time>2017-11-22T11:05:32Z</time>
      </trkpt>
      <trkpt lat="44.8938" lon="6.71412">
        <ele>2464.96</ele>
        <time>2017-11-22T11:05:47Z</time>
      </trkpt>
      <trkpt lat="44.89382" lon="6.71411">
        <ele>2465.44</ele>
        <time>2017-11-22T11:06:03Z</time>
      </trkpt>
      <trkpt lat="44.89381" lon="6.71411">
        <ele>2465.44</ele>
        <time>2017-11-22T11:06:21Z</time>
      </trkpt>
      <trkpt lat="44.89383" lon="6.7141">
        <ele>2465.44</ele>
        <time>2017-11-22T11:06:49Z</time>
      </trkpt>
      <trkpt lat="44.89383" lon="6.7141">
        <ele>2464.96</ele>
        <time>2017-11-22T11:07:18Z</time>
      </trkpt>
      <trkpt lat="44.89382" lon="6.71409">
        <ele>2464.96</ele>
        <time>2017-11-22T11:07:38Z</time>
      </trkpt>
      <trkpt lat="44.89381" lon="6.71409">
        <ele>2464</ele>
        <time>2017-11-22T11:08:10Z</time>
      </trkpt>
      <trkpt lat="44.89381" lon="6.71408">
        <ele>2464</ele>
        <time>2017-11-22T11:08:39Z</time>
      </trkpt>
      <trkpt lat="44.8938" lon="6.71408">
        <ele>2464</ele>
        <time>2017-11-22T11:09:12Z</time>
      </trkpt>
      <trkpt lat="44.8938" lon="6.71409">
        <ele>2464</ele>
        <time>2017-11-22T11:09:39Z</time>
      </trkpt>
      <trkpt lat="44.8938" lon="6.71409">
        <ele>2463.52</ele>
        <time>2017-11-22T11:10:25Z</time>
      </trkpt>
      <trkpt lat="44.89381" lon="6.7141">
        <ele>2463.52</ele>
        <time>2017-11-22T11:11:02Z</time>
      </trkpt>
      <trkpt lat="44.8938" lon="6.71409">
        <ele>2463.52</ele>
        <time>2017-11-22T11:11:43Z</time>
      </trkpt>
      <trkpt lat="44.8938" lon="6.7141">
        <ele>2463.52</ele>
        <time>2017-11-22T11:12:17Z</time>
      </trkpt>
      <trkpt lat="44.8938" lon="6.7141">
        <ele>2463.52</ele>
        <time>2017-11-22T11:12:54Z</time>
      </trkpt>
      <trkpt lat="44.8938" lon="6.71409">
        <ele>2463.52</ele>
        <time>2017-11-22T11:13:26Z</time>
      </trkpt>
      <trkpt lat="44.8938" lon="6.71409">
        <ele>2463.52</ele>
        <time>2017-11-22T11:13:56Z</time>
      </trkpt>
      <trkpt lat="44.89381" lon="6.71409">
        <ele>2463.52</ele>
        <time>2017-11-22T11:14:32Z</time>
      </trkpt>
      <trkpt lat="44.89381" lon="6.71409">
        <ele>2463.52</ele>
        <time>2017-11-22T11:15:10Z</time>
      </trkpt>
      <trkpt lat="44.89381" lon="6.71409">
        <ele>2463.52</ele>
        <time>2017-11-22T11:15:43Z</time>
      </trkpt>
      <trkpt lat="44.8938" lon="6.71409">
        <ele>2464</ele>
        <time>2017-11-22T11:16:27Z</time>
      </trkpt>
      <trkpt lat="44.8938" lon="6.71409">
        <ele>2464</ele>
        <time>2017-11-22T11:17:01Z</time>
      </trkpt>
      <trkpt lat="44.89381" lon="6.71409">
        <ele>2464</ele>
        <time>2017-11-22T11:17:37Z</time>
      </trkpt>
      <trkpt lat="44.89381" lon="6.7141">
        <ele>2463.52</ele>
        <time>2017-11-22T11:18:16Z</time>
      </trkpt>
      <trkpt lat="44.89381" lon="6.71409">
        <ele>2463.52</ele>
        <time>2017-11-22T11:18:49Z</time>
      </trkpt>
      <trkpt lat="44.89381" lon="6.71409">
        <ele>2463.52</ele>
        <time>2017-11-22T11:19:28Z</time>
      </trkpt>
      <trkpt lat="44.8938" lon="6.71409">
        <ele>2463.52</ele>
        <time>2017-11-22T11:20:02Z</time>
      </trkpt>
      <trkpt lat="44.89379" lon="6.71411">
        <ele>2463.52</ele>
        <time>2017-11-22T11:20:20Z</time>
      </trkpt>
      <trkpt lat="44.8938" lon="6.71411">
        <ele>2463.52</ele>
        <time>2017-11-22T11:20:59Z</time>
      </trkpt>
      <trkpt lat="44.89379" lon="6.71411">
        <ele>2463.52</ele>
        <time>2017-11-22T11:21:36Z</time>
      </trkpt>
      <trkpt lat="44.89379" lon="6.71411">
        <ele>2463.04</ele>
        <time>2017-11-22T11:22:08Z</time>
      </trkpt>
      <trkpt lat="44.89379" lon="6.7141">
        <ele>2463.04</ele>
        <time>2017-11-22T11:22:35Z</time>
      </trkpt>
      <trkpt lat="44.89379" lon="6.7141">
        <ele>2463.04</ele>
        <time>2017-11-22T11:23:02Z</time>
      </trkpt>
      <trkpt lat="44.8938" lon="6.71411">
        <ele>2463.04</ele>
        <time>2017-11-22T11:23:27Z</time>
      </trkpt>
      <trkpt lat="44.8938" lon="6.7141">
        <ele>2463.04</ele>
        <time>2017-11-22T11:23:56Z</time>
      </trkpt>
      <trkpt lat="44.8938" lon="6.7141">
        <ele>2463.04</ele>
        <time>2017-11-22T11:24:25Z</time>
      </trkpt>
      <trkpt lat="44.89379" lon="6.7141">
        <ele>2463.04</ele>
        <time>2017-11-22T11:24:47Z</time>
      </trkpt>
      <trkpt lat="44.89379" lon="6.7141">
        <ele>2463.04</ele>
        <time>2017-11-22T11:25:19Z</time>
      </trkpt>
      <trkpt lat="44.8938" lon="6.7141">
        <ele>2463.04</ele>
        <time>2017-11-22T11:25:51Z</time>
      </trkpt>
      <trkpt lat="44.8938" lon="6.7141">
        <ele>2463.04</ele>
        <time>2017-11-22T11:26:17Z</time>
      </trkpt>
      <trkpt lat="44.8938" lon="6.7141">
        <ele>2463.04</ele>
        <time>2017-11-22T11:26:46Z</time>
      </trkpt>
      <trkpt lat="44.8938" lon="6.7141">
        <ele>2463.04</ele>
        <time>2017-11-22T11:27:10Z</time>
      </trkpt>
      <trkpt lat="44.8938" lon="6.7141">
        <ele>2463.04</ele>
        <time>2017-11-22T11:27:40Z</time>
      </trkpt>
      <trkpt lat="44.89379" lon="6.7141">
        <ele>2463.52</ele>
        <time>2017-11-22T11:28:10Z</time>
      </trkpt>
      <trkpt lat="44.8938" lon="6.7141">
        <ele>2463.52</ele>
        <time>2017-11-22T11:28:47Z</time>
      </trkpt>
      <trkpt lat="44.8938" lon="6.71411">
        <ele>2463.04</ele>
        <time>2017-11-22T11:29:15Z</time>
      </trkpt>
      <trkpt lat="44.89379" lon="6.7141">
        <ele>2463.04</ele>
        <time>2017-11-22T11:29:47Z</time>
      </trkpt>
      <trkpt lat="44.89379" lon="6.71409">
        <ele>2463.04</ele>
        <time>2017-11-22T11:30:30Z</time>
      </trkpt>
      <trkpt lat="44.89379" lon="6.71408">
        <ele>2463.04</ele>
        <time>2017-11-22T11:31:10Z</time>
      </trkpt>
      <trkpt lat="44.89379" lon="6.71407">
        <ele>2463.04</ele>
        <time>2017-11-22T11:31:52Z</time>
      </trkpt>
      <trkpt lat="44.8938" lon="6.71409">
        <ele>2463.52</ele>
        <time>2017-11-22T11:32:32Z</time>
      </trkpt>
      <trkpt lat="44.8938" lon="6.71409">
        <ele>2462.55</ele>
        <time>2017-11-22T11:33:00Z</time>
      </trkpt>
      <trkpt lat="44.89382" lon="6.71408">
        <ele>2464.48</ele>
        <time>2017-11-22T11:33:16Z</time>
      </trkpt>
      <trkpt lat="44.89381" lon="6.7141">
        <ele>2464.48</ele>
        <time>2017-11-22T11:33:32Z</time>
      </trkpt>
      <trkpt lat="44.89382" lon="6.71411">
        <ele>2464.48</ele>
        <time>2017-11-22T11:33:45Z</time>
      </trkpt>
      <trkpt lat="44.89381" lon="6.71412">
        <ele>2464.48</ele>
        <time>2017-11-22T11:34:00Z</time>
      </trkpt>
      <trkpt lat="44.89382" lon="6.71411">
        <ele>2464</ele>
        <time>2017-11-22T11:34:20Z</time>
      </trkpt>
      <trkpt lat="44.89383" lon="6.71409">
        <ele>2464.48</ele>
        <time>2017-11-22T11:34:37Z</time>
      </trkpt>
      <trkpt lat="44.89383" lon="6.71409">
        <ele>2464.48</ele>
        <time>2017-11-22T11:35:02Z</time>
      </trkpt>
      <trkpt lat="44.89385" lon="6.7141">
        <ele>2464.48</ele>
        <time>2017-11-22T11:35:06Z</time>
      </trkpt>
      <trkpt lat="44.89393" lon="6.71419">
        <ele>2463.52</ele>
        <time>2017-11-22T11:35:11Z</time>
      </trkpt>
      <trkpt lat="44.89399" lon="6.71434">
        <ele>2461.11</ele>
        <time>2017-11-22T11:35:14Z</time>
      </trkpt>
      <trkpt lat="44.89406" lon="6.71442">
        <ele>2460.15</ele>
        <time>2017-11-22T11:35:16Z</time>
      </trkpt>
      <trkpt lat="44.89404" lon="6.71447">
        <ele>2458.23</ele>
        <time>2017-11-22T11:35:28Z</time>
      </trkpt>
      <trkpt lat="44.89405" lon="6.71448">
        <ele>2458.71</ele>
        <time>2017-11-22T11:35:32Z</time>
      </trkpt>
      <trkpt lat="44.89406" lon="6.71459">
        <ele>2457.75</ele>
        <time>2017-11-22T11:35:36Z</time>
      </trkpt>
      <trkpt lat="44.89405" lon="6.71484">
        <ele>2455.82</ele>
        <time>2017-11-22T11:35:41Z</time>
      </trkpt>
      <trkpt lat="44.89421" lon="6.71493">
        <ele>2451.98</ele>
        <time>2017-11-22T11:35:47Z</time>
      </trkpt>
      <trkpt lat="44.89418" lon="6.71506">
        <ele>2449.1</ele>
        <time>2017-11-22T11:35:50Z</time>
      </trkpt>
      <trkpt lat="44.89417" lon="6.71509">
        <ele>2448.62</ele>
        <time>2017-11-22T11:35:51Z</time>
      </trkpt>
      <trkpt lat="44.8943" lon="6.71515">
        <ele>2446.69</ele>
        <time>2017-11-22T11:35:57Z</time>
      </trkpt>
      <trkpt lat="44.89429" lon="6.71519">
        <ele>2445.25</ele>
        <time>2017-11-22T11:35:58Z</time>
      </trkpt>
      <trkpt lat="44.89426" lon="6.71528">
        <ele>2443.33</ele>
        <time>2017-11-22T11:36:00Z</time>
      </trkpt>
      <trkpt lat="44.89441" lon="6.71537">
        <ele>2440.44</ele>
        <time>2017-11-22T11:36:05Z</time>
      </trkpt>
      <trkpt lat="44.89438" lon="6.7155">
        <ele>2437.08</ele>
        <time>2017-11-22T11:36:08Z</time>
      </trkpt>
      <trkpt lat="44.89446" lon="6.71557">
        <ele>2434.68</ele>
        <time>2017-11-22T11:36:12Z</time>
      </trkpt>
      <trkpt lat="44.89445" lon="6.71556">
        <ele>2434.68</ele>
        <time>2017-11-22T11:36:28Z</time>
      </trkpt>
      <trkpt lat="44.89447" lon="6.71559">
        <ele>2434.68</ele>
        <time>2017-11-22T11:36:47Z</time>
      </trkpt>
      <trkpt lat="44.89446" lon="6.7156">
        <ele>2434.68</ele>
        <time>2017-11-22T11:36:51Z</time>
      </trkpt>
      <trkpt lat="44.89446" lon="6.71563">
        <ele>2433.71</ele>
        <time>2017-11-22T11:37:02Z</time>
      </trkpt>
      <trkpt lat="44.89447" lon="6.71564">
        <ele>2434.2</ele>
        <time>2017-11-22T11:37:19Z</time>
      </trkpt>
      <trkpt lat="44.89451" lon="6.71573">
        <ele>2432.75</ele>
        <time>2017-11-22T11:37:22Z</time>
      </trkpt>
      <trkpt lat="44.89453" lon="6.71588">
        <ele>2428.43</ele>
        <time>2017-11-22T11:37:24Z</time>
      </trkpt>
      <trkpt lat="44.89454" lon="6.71607">
        <ele>2425.06</ele>
        <time>2017-11-22T11:37:26Z</time>
      </trkpt>
      <trkpt lat="44.89458" lon="6.71626">
        <ele>2422.66</ele>
        <time>2017-11-22T11:37:29Z</time>
      </trkpt>
      <trkpt lat="44.89459" lon="6.71643">
        <ele>2419.3</ele>
        <time>2017-11-22T11:37:32Z</time>
      </trkpt>
      <trkpt lat="44.89458" lon="6.71647">
        <ele>2418.81</ele>
        <time>2017-11-22T11:37:33Z</time>
      </trkpt>
      <trkpt lat="44.89458" lon="6.71653">
        <ele>2418.33</ele>
        <time>2017-11-22T11:37:40Z</time>
      </trkpt>
      <trkpt lat="44.89458" lon="6.71653">
        <ele>2417.85</ele>
        <time>2017-11-22T11:37:59Z</time>
      </trkpt>
      <trkpt lat="44.8946" lon="6.71674">
        <ele>2413.53</ele>
        <time>2017-11-22T11:38:04Z</time>
      </trkpt>
      <trkpt lat="44.89466" lon="6.71705">
        <ele>2407.76</ele>
        <time>2017-11-22T11:38:07Z</time>
      </trkpt>
      <trkpt lat="44.89469" lon="6.71727">
        <ele>2406.32</ele>
        <time>2017-11-22T11:38:09Z</time>
      </trkpt>
      <trkpt lat="44.89477" lon="6.71763">
        <ele>2405.84</ele>
        <time>2017-11-22T11:38:15Z</time>
      </trkpt>
      <trkpt lat="44.89478" lon="6.71768">
        <ele>2404.88</ele>
        <time>2017-11-22T11:38:17Z</time>
      </trkpt>
      <trkpt lat="44.89477" lon="6.71767">
        <ele>2403.43</ele>
        <time>2017-11-22T11:38:28Z</time>
      </trkpt>
      <trkpt lat="44.89485" lon="6.71788">
        <ele>2400.55</ele>
        <time>2017-11-22T11:38:33Z</time>
      </trkpt>
      <trkpt lat="44.89484" lon="6.71796">
        <ele>2395.26</ele>
        <time>2017-11-22T11:38:34Z</time>
      </trkpt>
      <trkpt lat="44.89493" lon="6.71818">
        <ele>2391.9</ele>
        <time>2017-11-22T11:38:37Z</time>
      </trkpt>
      <trkpt lat="44.89494" lon="6.71834">
        <ele>2386.13</ele>
        <time>2017-11-22T11:38:39Z</time>
      </trkpt>
      <trkpt lat="44.89494" lon="6.71841">
        <ele>2385.65</ele>
        <time>2017-11-22T11:38:40Z</time>
      </trkpt>
      <trkpt lat="44.89496" lon="6.71865">
        <ele>2381.8</ele>
        <time>2017-11-22T11:38:43Z</time>
      </trkpt>
      <trkpt lat="44.89506" lon="6.71894">
        <ele>2377</ele>
        <time>2017-11-22T11:38:48Z</time>
      </trkpt>
      <trkpt lat="44.89508" lon="6.71903">
        <ele>2375.07</ele>
        <time>2017-11-22T11:38:53Z</time>
      </trkpt>
      <trkpt lat="44.89506" lon="6.71904">
        <ele>2374.59</ele>
        <time>2017-11-22T11:39:12Z</time>
      </trkpt>
      <trkpt lat="44.89505" lon="6.71904">
        <ele>2374.59</ele>
        <time>2017-11-22T11:39:35Z</time>
      </trkpt>
      <trkpt lat="44.89506" lon="6.71905">
        <ele>2374.59</ele>
        <time>2017-11-22T11:40:04Z</time>
      </trkpt>
      <trkpt lat="44.8951" lon="6.71924">
        <ele>2371.23</ele>
        <time>2017-11-22T11:40:08Z</time>
      </trkpt>
      <trkpt lat="44.89518" lon="6.71945">
        <ele>2367.86</ele>
        <time>2017-11-22T11:40:11Z</time>
      </trkpt>
      <trkpt lat="44.89521" lon="6.71961">
        <ele>2364.02</ele>
        <time>2017-11-22T11:40:13Z</time>
      </trkpt>
      <trkpt lat="44.89526" lon="6.71966">
        <ele>2364.02</ele>
        <time>2017-11-22T11:40:14Z</time>
      </trkpt>
      <trkpt lat="44.89531" lon="6.7198">
        <ele>2358.73</ele>
        <time>2017-11-22T11:40:16Z</time>
      </trkpt>
      <trkpt lat="44.89533" lon="6.71987">
        <ele>2358.73</ele>
        <time>2017-11-22T11:40:17Z</time>
      </trkpt>
      <trkpt lat="44.89535" lon="6.72004">
        <ele>2354.41</ele>
        <time>2017-11-22T11:40:26Z</time>
      </trkpt>
      <trkpt lat="44.89535" lon="6.72005">
        <ele>2354.41</ele>
        <time>2017-11-22T11:40:42Z</time>
      </trkpt>
      <trkpt lat="44.89536" lon="6.72007">
        <ele>2353.93</ele>
        <time>2017-11-22T11:41:06Z</time>
      </trkpt>
      <trkpt lat="44.89536" lon="6.72008">
        <ele>2353.93</ele>
        <time>2017-11-22T11:41:07Z</time>
      </trkpt>
      <trkpt lat="44.89547" lon="6.72019">
        <ele>2352.48</ele>
        <time>2017-11-22T11:41:16Z</time>
      </trkpt>
      <trkpt lat="44.89558" lon="6.72048">
        <ele>2348.64</ele>
        <time>2017-11-22T11:41:23Z</time>
      </trkpt>
      <trkpt lat="44.89562" lon="6.72082">
        <ele>2341.43</ele>
        <time>2017-11-22T11:41:28Z</time>
      </trkpt>
      <trkpt lat="44.89566" lon="6.72088">
        <ele>2341.43</ele>
        <time>2017-11-22T11:41:29Z</time>
      </trkpt>
      <trkpt lat="44.89579" lon="6.72105">
        <ele>2336.14</ele>
        <time>2017-11-22T11:41:32Z</time>
      </trkpt>
      <trkpt lat="44.89587" lon="6.72121">
        <ele>2334.7</ele>
        <time>2017-11-22T11:41:34Z</time>
      </trkpt>
      <trkpt lat="44.89599" lon="6.72142">
        <ele>2330.85</ele>
        <time>2017-11-22T11:41:37Z</time>
      </trkpt>
      <trkpt lat="44.89603" lon="6.72148">
        <ele>2331.33</ele>
        <time>2017-11-22T11:41:38Z</time>
      </trkpt>
      <trkpt lat="44.89616" lon="6.72162">
        <ele>2327.97</ele>
        <time>2017-11-22T11:41:42Z</time>
      </trkpt>
      <trkpt lat="44.89615" lon="6.72168">
        <ele>2327.01</ele>
        <time>2017-11-22T11:41:44Z</time>
      </trkpt>
      <trkpt lat="44.89613" lon="6.72167">
        <ele>2327.01</ele>
        <time>2017-11-22T11:42:07Z</time>
      </trkpt>
      <trkpt lat="44.89613" lon="6.72166">
        <ele>2327.01</ele>
        <time>2017-11-22T11:42:24Z</time>
      </trkpt>
      <trkpt lat="44.89613" lon="6.72168">
        <ele>2326.53</ele>
        <time>2017-11-22T11:42:47Z</time>
      </trkpt>
      <trkpt lat="44.89612" lon="6.72167">
        <ele>2326.53</ele>
        <time>2017-11-22T11:43:00Z</time>
      </trkpt>
      <trkpt lat="44.89612" lon="6.72167">
        <ele>2326.53</ele>
        <time>2017-11-22T11:43:20Z</time>
      </trkpt>
      <trkpt lat="44.89613" lon="6.72169">
        <ele>2326.05</ele>
        <time>2017-11-22T11:43:26Z</time>
      </trkpt>
      <trkpt lat="44.89636" lon="6.72182">
        <ele>2324.61</ele>
        <time>2017-11-22T11:43:35Z</time>
      </trkpt>
      <trkpt lat="44.89656" lon="6.72201">
        <ele>2320.76</ele>
        <time>2017-11-22T11:43:40Z</time>
      </trkpt>
      <trkpt lat="44.89668" lon="6.72215">
        <ele>2317.88</ele>
        <time>2017-11-22T11:43:43Z</time>
      </trkpt>
      <trkpt lat="44.89675" lon="6.72227">
        <ele>2314.51</ele>
        <time>2017-11-22T11:43:45Z</time>
      </trkpt>
      <trkpt lat="44.89683" lon="6.72235">
        <ele>2313.07</ele>
        <time>2017-11-22T11:43:47Z</time>
      </trkpt>
      <trkpt lat="44.89687" lon="6.72238">
        <ele>2312.11</ele>
        <time>2017-11-22T11:43:48Z</time>
      </trkpt>
      <trkpt lat="44.89708" lon="6.72261">
        <ele>2304.9</ele>
        <time>2017-11-22T11:43:53Z</time>
      </trkpt>
      <trkpt lat="44.89713" lon="6.72266">
        <ele>2305.86</ele>
        <time>2017-11-22T11:43:54Z</time>
      </trkpt>
      <trkpt lat="44.89732" lon="6.72277">
        <ele>2300.09</ele>
        <time>2017-11-22T11:43:57Z</time>
      </trkpt>
      <trkpt lat="44.89737" lon="6.72281">
        <ele>2300.09</ele>
        <time>2017-11-22T11:43:58Z</time>
      </trkpt>
      <trkpt lat="44.89758" lon="6.72292">
        <ele>2296.25</ele>
        <time>2017-11-22T11:44:02Z</time>
      </trkpt>
      <trkpt lat="44.89762" lon="6.72294">
        <ele>2296.73</ele>
        <time>2017-11-22T11:44:03Z</time>
      </trkpt>
      <trkpt lat="44.89771" lon="6.72299">
        <ele>2294.8</ele>
        <time>2017-11-22T11:44:05Z</time>
      </trkpt>
      <trkpt lat="44.89781" lon="6.72312">
        <ele>2292.4</ele>
        <time>2017-11-22T11:44:08Z</time>
      </trkpt>
      <trkpt lat="44.89786" lon="6.72319">
        <ele>2290.48</ele>
        <time>2017-11-22T11:44:11Z</time>
      </trkpt>
      <trkpt lat="44.89784" lon="6.7232">
        <ele>2290.48</ele>
        <time>2017-11-22T11:44:27Z</time>
      </trkpt>
      <trkpt lat="44.89783" lon="6.7232">
        <ele>2290.48</ele>
        <time>2017-11-22T11:44:43Z</time>
      </trkpt>
      <trkpt lat="44.89783" lon="6.72321">
        <ele>2290.48</ele>
        <time>2017-11-22T11:45:05Z</time>
      </trkpt>
      <trkpt lat="44.89783" lon="6.72321">
        <ele>2290.48</ele>
        <time>2017-11-22T11:45:30Z</time>
      </trkpt>
      <trkpt lat="44.89784" lon="6.72321">
        <ele>2290</ele>
        <time>2017-11-22T11:45:48Z</time>
      </trkpt>
      <trkpt lat="44.89795" lon="6.72325">
        <ele>2289.04</ele>
        <time>2017-11-22T11:45:52Z</time>
      </trkpt>
      <trkpt lat="44.89816" lon="6.7233">
        <ele>2287.59</ele>
        <time>2017-11-22T11:45:56Z</time>
      </trkpt>
      <trkpt lat="44.8983" lon="6.7234">
        <ele>2283.75</ele>
        <time>2017-11-22T11:45:59Z</time>
      </trkpt>
      <trkpt lat="44.89842" lon="6.72347">
        <ele>2284.71</ele>
        <time>2017-11-22T11:46:01Z</time>
      </trkpt>
      <trkpt lat="44.89851" lon="6.72355">
        <ele>2281.35</ele>
        <time>2017-11-22T11:46:03Z</time>
      </trkpt>
      <trkpt lat="44.89876" lon="6.7237">
        <ele>2279.42</ele>
        <time>2017-11-22T11:46:08Z</time>
      </trkpt>
      <trkpt lat="44.89887" lon="6.72372">
        <ele>2277.98</ele>
        <time>2017-11-22T11:46:10Z</time>
      </trkpt>
      <trkpt lat="44.89921" lon="6.72381">
        <ele>2274.62</ele>
        <time>2017-11-22T11:46:16Z</time>
      </trkpt>
      <trkpt lat="44.89941" lon="6.72382">
        <ele>2271.73</ele>
        <time>2017-11-22T11:46:19Z</time>
      </trkpt>
      <trkpt lat="44.89972" lon="6.72388">
        <ele>2268.85</ele>
        <time>2017-11-22T11:46:24Z</time>
      </trkpt>
      <trkpt lat="44.89991" lon="6.72393">
        <ele>2265.48</ele>
        <time>2017-11-22T11:46:27Z</time>
      </trkpt>
      <trkpt lat="44.90016" lon="6.72397">
        <ele>2264.04</ele>
        <time>2017-11-22T11:46:31Z</time>
      </trkpt>
      <trkpt lat="44.90033" lon="6.724">
        <ele>2262.6</ele>
        <time>2017-11-22T11:46:34Z</time>
      </trkpt>
      <trkpt lat="44.9005" lon="6.72403">
        <ele>2259.72</ele>
        <time>2017-11-22T11:46:37Z</time>
      </trkpt>
      <trkpt lat="44.90068" lon="6.72405">
        <ele>2258.27</ele>
        <time>2017-11-22T11:46:40Z</time>
      </trkpt>
      <trkpt lat="44.90081" lon="6.72408">
        <ele>2254.91</ele>
        <time>2017-11-22T11:46:42Z</time>
      </trkpt>
      <trkpt lat="44.90087" lon="6.72409">
        <ele>2255.39</ele>
        <time>2017-11-22T11:46:43Z</time>
      </trkpt>
      <trkpt lat="44.90127" lon="6.72417">
        <ele>2249.14</ele>
        <time>2017-11-22T11:46:49Z</time>
      </trkpt>
      <trkpt lat="44.90133" lon="6.72417">
        <ele>2250.1</ele>
        <time>2017-11-22T11:46:50Z</time>
      </trkpt>
      <trkpt lat="44.90152" lon="6.72422">
        <ele>2246.74</ele>
        <time>2017-11-22T11:46:53Z</time>
      </trkpt>
      <trkpt lat="44.90165" lon="6.72429">
        <ele>2245.3</ele>
        <time>2017-11-22T11:46:58Z</time>
      </trkpt>
      <trkpt lat="44.90164" lon="6.72429">
        <ele>2246.74</ele>
        <time>2017-11-22T11:47:01Z</time>
      </trkpt>
      <trkpt lat="44.90164" lon="6.7243">
        <ele>2245.78</ele>
        <time>2017-11-22T11:47:16Z</time>
      </trkpt>
      <trkpt lat="44.90165" lon="6.72431">
        <ele>2245.3</ele>
        <time>2017-11-22T11:47:40Z</time>
      </trkpt>
      <trkpt lat="44.90165" lon="6.7243">
        <ele>2245.3</ele>
        <time>2017-11-22T11:48:02Z</time>
      </trkpt>
      <trkpt lat="44.90165" lon="6.7243">
        <ele>2245.3</ele>
        <time>2017-11-22T11:48:20Z</time>
      </trkpt>
      <trkpt lat="44.90164" lon="6.72431">
        <ele>2245.3</ele>
        <time>2017-11-22T11:48:38Z</time>
      </trkpt>
      <trkpt lat="44.90164" lon="6.72431">
        <ele>2246.74</ele>
        <time>2017-11-22T11:49:01Z</time>
      </trkpt>
      <trkpt lat="44.90164" lon="6.72431">
        <ele>2245.3</ele>
        <time>2017-11-22T11:49:26Z</time>
      </trkpt>
      <trkpt lat="44.90165" lon="6.72432">
        <ele>2245.3</ele>
        <time>2017-11-22T11:49:48Z</time>
      </trkpt>
      <trkpt lat="44.90163" lon="6.72432">
        <ele>2245.3</ele>
        <time>2017-11-22T11:50:08Z</time>
      </trkpt>
      <trkpt lat="44.90165" lon="6.72432">
        <ele>2244.82</ele>
        <time>2017-11-22T11:50:27Z</time>
      </trkpt>
      <trkpt lat="44.9018" lon="6.72428">
        <ele>2243.85</ele>
        <time>2017-11-22T11:50:32Z</time>
      </trkpt>
      <trkpt lat="44.902" lon="6.72433">
        <ele>2240.97</ele>
        <time>2017-11-22T11:50:36Z</time>
      </trkpt>
      <trkpt lat="44.90219" lon="6.72434">
        <ele>2237.61</ele>
        <time>2017-11-22T11:50:39Z</time>
      </trkpt>
      <trkpt lat="44.90224" lon="6.72434">
        <ele>2237.61</ele>
        <time>2017-11-22T11:50:40Z</time>
      </trkpt>
      <trkpt lat="44.90253" lon="6.72436">
        <ele>2234.24</ele>
        <time>2017-11-22T11:50:45Z</time>
      </trkpt>
      <trkpt lat="44.90269" lon="6.72441">
        <ele>2231.84</ele>
        <time>2017-11-22T11:50:48Z</time>
      </trkpt>
      <trkpt lat="44.90286" lon="6.72446">
        <ele>2228.47</ele>
        <time>2017-11-22T11:50:51Z</time>
      </trkpt>
      <trkpt lat="44.90305" lon="6.72453">
        <ele>2226.07</ele>
        <time>2017-11-22T11:50:54Z</time>
      </trkpt>
      <trkpt lat="44.90318" lon="6.72454">
        <ele>2225.11</ele>
        <time>2017-11-22T11:50:56Z</time>
      </trkpt>
      <trkpt lat="44.90336" lon="6.7246">
        <ele>2221.74</ele>
        <time>2017-11-22T11:50:59Z</time>
      </trkpt>
      <trkpt lat="44.90343" lon="6.72459">
        <ele>2220.78</ele>
        <time>2017-11-22T11:51:00Z</time>
      </trkpt>
      <trkpt lat="44.90357" lon="6.72462">
        <ele>2218.86</ele>
        <time>2017-11-22T11:51:02Z</time>
      </trkpt>
      <trkpt lat="44.90382" lon="6.72466">
        <ele>2214.05</ele>
        <time>2017-11-22T11:51:06Z</time>
      </trkpt>
      <trkpt lat="44.904" lon="6.72467">
        <ele>2211.17</ele>
        <time>2017-11-22T11:51:09Z</time>
      </trkpt>
      <trkpt lat="44.90407" lon="6.72469">
        <ele>2210.21</ele>
        <time>2017-11-22T11:51:10Z</time>
      </trkpt>
      <trkpt lat="44.90433" lon="6.72472">
        <ele>2207.32</ele>
        <time>2017-11-22T11:51:14Z</time>
      </trkpt>
      <trkpt lat="44.9044" lon="6.72472">
        <ele>2206.84</ele>
        <time>2017-11-22T11:51:15Z</time>
      </trkpt>
      <trkpt lat="44.90474" lon="6.72478">
        <ele>2203</ele>
        <time>2017-11-22T11:51:21Z</time>
      </trkpt>
      <trkpt lat="44.90489" lon="6.72484">
        <ele>2201.56</ele>
        <time>2017-11-22T11:51:24Z</time>
      </trkpt>
      <trkpt lat="44.9051" lon="6.72489">
        <ele>2198.19</ele>
        <time>2017-11-22T11:51:28Z</time>
      </trkpt>
      <trkpt lat="44.90531" lon="6.72492">
        <ele>2195.31</ele>
        <time>2017-11-22T11:51:33Z</time>
      </trkpt>
      <trkpt lat="44.90527" lon="6.72492">
        <ele>2194.83</ele>
        <time>2017-11-22T11:51:47Z</time>
      </trkpt>
      <trkpt lat="44.90526" lon="6.72494">
        <ele>2195.31</ele>
        <time>2017-11-22T11:52:05Z</time>
      </trkpt>
      <trkpt lat="44.90528" lon="6.72493">
        <ele>2194.83</ele>
        <time>2017-11-22T11:52:29Z</time>
      </trkpt>
      <trkpt lat="44.90527" lon="6.72492">
        <ele>2194.83</ele>
        <time>2017-11-22T11:52:50Z</time>
      </trkpt>
      <trkpt lat="44.90528" lon="6.72491">
        <ele>2194.83</ele>
        <time>2017-11-22T11:53:13Z</time>
      </trkpt>
      <trkpt lat="44.90529" lon="6.72493">
        <ele>2194.83</ele>
        <time>2017-11-22T11:53:36Z</time>
      </trkpt>
      <trkpt lat="44.9053" lon="6.72494">
        <ele>2195.31</ele>
        <time>2017-11-22T11:53:59Z</time>
      </trkpt>
      <trkpt lat="44.90541" lon="6.72496">
        <ele>2193.39</ele>
        <time>2017-11-22T11:54:05Z</time>
      </trkpt>
      <trkpt lat="44.90554" lon="6.72489">
        <ele>2192.42</ele>
        <time>2017-11-22T11:54:08Z</time>
      </trkpt>
      <trkpt lat="44.9057" lon="6.72494">
        <ele>2188.58</ele>
        <time>2017-11-22T11:54:11Z</time>
      </trkpt>
      <trkpt lat="44.906" lon="6.72501">
        <ele>2183.77</ele>
        <time>2017-11-22T11:54:16Z</time>
      </trkpt>
      <trkpt lat="44.90606" lon="6.72502">
        <ele>2184.25</ele>
        <time>2017-11-22T11:54:17Z</time>
      </trkpt>
      <trkpt lat="44.90624" lon="6.72509">
        <ele>2179.45</ele>
        <time>2017-11-22T11:54:20Z</time>
      </trkpt>
      <trkpt lat="44.90634" lon="6.72519">
        <ele>2178.48</ele>
        <time>2017-11-22T11:54:22Z</time>
      </trkpt>
      <trkpt lat="44.90655" lon="6.72522">
        <ele>2175.12</ele>
        <time>2017-11-22T11:54:25Z</time>
      </trkpt>
      <trkpt lat="44.90669" lon="6.72527">
        <ele>2173.68</ele>
        <time>2017-11-22T11:54:27Z</time>
      </trkpt>
      <trkpt lat="44.9069" lon="6.72525">
        <ele>2170.31</ele>
        <time>2017-11-22T11:54:30Z</time>
      </trkpt>
      <trkpt lat="44.907" lon="6.72529">
        <ele>2168.39</ele>
        <time>2017-11-22T11:54:32Z</time>
      </trkpt>
      <trkpt lat="44.9073" lon="6.72526">
        <ele>2164.55</ele>
        <time>2017-11-22T11:54:37Z</time>
      </trkpt>
      <trkpt lat="44.90755" lon="6.72522">
        <ele>2160.22</ele>
        <time>2017-11-22T11:54:41Z</time>
      </trkpt>
      <trkpt lat="44.9079" lon="6.72516">
        <ele>2153.49</ele>
        <time>2017-11-22T11:54:46Z</time>
      </trkpt>
      <trkpt lat="44.90805" lon="6.72516">
        <ele>2153.01</ele>
        <time>2017-11-22T11:54:48Z</time>
      </trkpt>
      <trkpt lat="44.90836" lon="6.72517">
        <ele>2147.24</ele>
        <time>2017-11-22T11:54:52Z</time>
      </trkpt>
      <trkpt lat="44.90866" lon="6.72519">
        <ele>2145.8</ele>
        <time>2017-11-22T11:54:58Z</time>
      </trkpt>
      <trkpt lat="44.90894" lon="6.7251">
        <ele>2141.95</ele>
        <time>2017-11-22T11:55:03Z</time>
      </trkpt>
      <trkpt lat="44.909" lon="6.72508">
        <ele>2143.4</ele>
        <time>2017-11-22T11:55:04Z</time>
      </trkpt>
      <trkpt lat="44.90917" lon="6.72502">
        <ele>2138.11</ele>
        <time>2017-11-22T11:55:07Z</time>
      </trkpt>
      <trkpt lat="44.90923" lon="6.72501">
        <ele>2137.63</ele>
        <time>2017-11-22T11:55:15Z</time>
      </trkpt>
      <trkpt lat="44.90924" lon="6.72499">
        <ele>2138.11</ele>
        <time>2017-11-22T11:55:33Z</time>
      </trkpt>
      <trkpt lat="44.90922" lon="6.72497">
        <ele>2138.11</ele>
        <time>2017-11-22T11:55:58Z</time>
      </trkpt>
      <trkpt lat="44.90922" lon="6.72499">
        <ele>2138.11</ele>
        <time>2017-11-22T11:56:19Z</time>
      </trkpt>
      <trkpt lat="44.90922" lon="6.72498">
        <ele>2138.11</ele>
        <time>2017-11-22T11:56:41Z</time>
      </trkpt>
      <trkpt lat="44.90923" lon="6.72497">
        <ele>2138.11</ele>
        <time>2017-11-22T11:57:08Z</time>
      </trkpt>
      <trkpt lat="44.90924" lon="6.72499">
        <ele>2138.11</ele>
        <time>2017-11-22T11:57:33Z</time>
      </trkpt>
      <trkpt lat="44.90925" lon="6.72499">
        <ele>2138.11</ele>
        <time>2017-11-22T11:57:53Z</time>
      </trkpt>
      <trkpt lat="44.90933" lon="6.72492">
        <ele>2136.67</ele>
        <time>2017-11-22T11:57:57Z</time>
      </trkpt>
      <trkpt lat="44.90956" lon="6.72486">
        <ele>2131.86</ele>
        <time>2017-11-22T11:58:01Z</time>
      </trkpt>
      <trkpt lat="44.90961" lon="6.72481">
        <ele>2132.34</ele>
        <time>2017-11-22T11:58:02Z</time>
      </trkpt>
      <trkpt lat="44.90978" lon="6.7247">
        <ele>2127.53</ele>
        <time>2017-11-22T11:58:05Z</time>
      </trkpt>
      <trkpt lat="44.9098" lon="6.72465">
        <ele>2127.53</ele>
        <time>2017-11-22T11:58:06Z</time>
      </trkpt>
      <trkpt lat="44.90986" lon="6.72442">
        <ele>2123.21</ele>
        <time>2017-11-22T11:58:09Z</time>
      </trkpt>
      <trkpt lat="44.90991" lon="6.72426">
        <ele>2121.77</ele>
        <time>2017-11-22T11:58:11Z</time>
      </trkpt>
      <trkpt lat="44.91002" lon="6.72398">
        <ele>2116.48</ele>
        <time>2017-11-22T11:58:14Z</time>
      </trkpt>
      <trkpt lat="44.91009" lon="6.7238">
        <ele>2115.04</ele>
        <time>2017-11-22T11:58:16Z</time>
      </trkpt>
      <trkpt lat="44.9102" lon="6.72351">
        <ele>2110.23</ele>
        <time>2017-11-22T11:58:19Z</time>
      </trkpt>
      <trkpt lat="44.91041" lon="6.72305">
        <ele>2106.39</ele>
        <time>2017-11-22T11:58:24Z</time>
      </trkpt>
      <trkpt lat="44.91062" lon="6.72292">
        <ele>2103.5</ele>
        <time>2017-11-22T11:58:27Z</time>
      </trkpt>
      <trkpt lat="44.91076" lon="6.72288">
        <ele>2103.5</ele>
        <time>2017-11-22T11:58:29Z</time>
      </trkpt>
      <trkpt lat="44.91097" lon="6.72285">
        <ele>2102.06</ele>
        <time>2017-11-22T11:58:32Z</time>
      </trkpt>
      <trkpt lat="44.91111" lon="6.72284">
        <ele>2102.06</ele>
        <time>2017-11-22T11:58:34Z</time>
      </trkpt>
      <trkpt lat="44.91132" lon="6.72293">
        <ele>2098.7</ele>
        <time>2017-11-22T11:58:37Z</time>
      </trkpt>
      <trkpt lat="44.91138" lon="6.72295">
        <ele>2099.18</ele>
        <time>2017-11-22T11:58:38Z</time>
      </trkpt>
      <trkpt lat="44.91159" lon="6.72304">
        <ele>2097.25</ele>
        <time>2017-11-22T11:58:42Z</time>
      </trkpt>
      <trkpt lat="44.91165" lon="6.72303">
        <ele>2096.29</ele>
        <time>2017-11-22T11:58:48Z</time>
      </trkpt>
      <trkpt lat="44.91164" lon="6.72304">
        <ele>2096.29</ele>
        <time>2017-11-22T11:59:14Z</time>
      </trkpt>
      <trkpt lat="44.91164" lon="6.72304">
        <ele>2096.29</ele>
        <time>2017-11-22T11:59:36Z</time>
      </trkpt>
      <trkpt lat="44.91163" lon="6.72304">
        <ele>2096.29</ele>
        <time>2017-11-22T12:00:00Z</time>
      </trkpt>
      <trkpt lat="44.91163" lon="6.72304">
        <ele>2096.29</ele>
        <time>2017-11-22T12:00:18Z</time>
      </trkpt>
      <trkpt lat="44.91163" lon="6.72304">
        <ele>2096.29</ele>
        <time>2017-11-22T12:00:43Z</time>
      </trkpt>
      <trkpt lat="44.91165" lon="6.72303">
        <ele>2096.29</ele>
        <time>2017-11-22T12:01:06Z</time>
      </trkpt>
      <trkpt lat="44.91164" lon="6.72305">
        <ele>2095.81</ele>
        <time>2017-11-22T12:01:30Z</time>
      </trkpt>
      <trkpt lat="44.91164" lon="6.72304">
        <ele>2095.81</ele>
        <time>2017-11-22T12:01:48Z</time>
      </trkpt>
      <trkpt lat="44.91165" lon="6.72306">
        <ele>2095.81</ele>
        <time>2017-11-22T12:02:00Z</time>
      </trkpt>
      <trkpt lat="44.91194" lon="6.72323">
        <ele>2093.41</ele>
        <time>2017-11-22T12:02:08Z</time>
      </trkpt>
      <trkpt lat="44.91217" lon="6.72335">
        <ele>2089.08</ele>
        <time>2017-11-22T12:02:12Z</time>
      </trkpt>
      <trkpt lat="44.91223" lon="6.72337">
        <ele>2089.56</ele>
        <time>2017-11-22T12:02:13Z</time>
      </trkpt>
      <trkpt lat="44.91248" lon="6.7235">
        <ele>2084.76</ele>
        <time>2017-11-22T12:02:17Z</time>
      </trkpt>
      <trkpt lat="44.91255" lon="6.72354">
        <ele>2085.24</ele>
        <time>2017-11-22T12:02:18Z</time>
      </trkpt>
      <trkpt lat="44.91263" lon="6.72356">
        <ele>2084.76</ele>
        <time>2017-11-22T12:02:19Z</time>
      </trkpt>
      <trkpt lat="44.91298" lon="6.72379">
        <ele>2077.07</ele>
        <time>2017-11-22T12:02:24Z</time>
      </trkpt>
      <trkpt lat="44.91305" lon="6.72387">
        <ele>2076.1</ele>
        <time>2017-11-22T12:02:25Z</time>
      </trkpt>
      <trkpt lat="44.91327" lon="6.72406">
        <ele>2073.7</ele>
        <time>2017-11-22T12:02:28Z</time>
      </trkpt>
      <trkpt lat="44.91359" lon="6.72416">
        <ele>2069.38</ele>
        <time>2017-11-22T12:02:32Z</time>
      </trkpt>
      <trkpt lat="44.9141" lon="6.72424">
        <ele>2066.97</ele>
        <time>2017-11-22T12:02:39Z</time>
      </trkpt>
      <trkpt lat="44.91429" lon="6.72433">
        <ele>2063.13</ele>
        <time>2017-11-22T12:02:42Z</time>
      </trkpt>
      <trkpt lat="44.91436" lon="6.72436">
        <ele>2063.13</ele>
        <time>2017-11-22T12:02:43Z</time>
      </trkpt>
      <trkpt lat="44.91443" lon="6.72437">
        <ele>2063.13</ele>
        <time>2017-11-22T12:02:44Z</time>
      </trkpt>
      <trkpt lat="44.91469" lon="6.72449">
        <ele>2057.36</ele>
        <time>2017-11-22T12:02:48Z</time>
      </trkpt>
      <trkpt lat="44.91476" lon="6.72452">
        <ele>2057.36</ele>
        <time>2017-11-22T12:02:49Z</time>
      </trkpt>
      <trkpt lat="44.91498" lon="6.72465">
        <ele>2053.03</ele>
        <time>2017-11-22T12:02:52Z</time>
      </trkpt>
      <trkpt lat="44.91519" lon="6.72478">
        <ele>2052.55</ele>
        <time>2017-11-22T12:02:55Z</time>
      </trkpt>
      <trkpt lat="44.91533" lon="6.72484">
        <ele>2050.63</ele>
        <time>2017-11-22T12:02:57Z</time>
      </trkpt>
      <trkpt lat="44.91554" lon="6.7248">
        <ele>2049.67</ele>
        <time>2017-11-22T12:03:00Z</time>
      </trkpt>
      <trkpt lat="44.91569" lon="6.72478">
        <ele>2045.82</ele>
        <time>2017-11-22T12:03:02Z</time>
      </trkpt>
      <trkpt lat="44.91584" lon="6.72476">
        <ele>2041.02</ele>
        <time>2017-11-22T12:03:04Z</time>
      </trkpt>
      <trkpt lat="44.9159" lon="6.72474">
        <ele>2043.9</ele>
        <time>2017-11-22T12:03:05Z</time>
      </trkpt>
      <trkpt lat="44.91599" lon="6.72476">
        <ele>2041.02</ele>
        <time>2017-11-22T12:03:07Z</time>
      </trkpt>
      <trkpt lat="44.91599" lon="6.72477">
        <ele>2040.54</ele>
        <time>2017-11-22T12:03:08Z</time>
      </trkpt>
      <trkpt lat="44.91609" lon="6.72477">
        <ele>2038.61</ele>
        <time>2017-11-22T12:03:13Z</time>
      </trkpt>
      <trkpt lat="44.91629" lon="6.72469">
        <ele>2036.21</ele>
        <time>2017-11-22T12:03:17Z</time>
      </trkpt>
      <trkpt lat="44.91648" lon="6.72468">
        <ele>2032.84</ele>
        <time>2017-11-22T12:03:20Z</time>
      </trkpt>
      <trkpt lat="44.91655" lon="6.72465">
        <ele>2033.33</ele>
        <time>2017-11-22T12:03:21Z</time>
      </trkpt>
      <trkpt lat="44.91662" lon="6.7246">
        <ele>2033.33</ele>
        <time>2017-11-22T12:03:22Z</time>
      </trkpt>
      <trkpt lat="44.91687" lon="6.72446">
        <ele>2026.6</ele>
        <time>2017-11-22T12:03:25Z</time>
      </trkpt>
      <trkpt lat="44.91704" lon="6.72444">
        <ele>2024.67</ele>
        <time>2017-11-22T12:03:27Z</time>
      </trkpt>
      <trkpt lat="44.9172" lon="6.72444">
        <ele>2023.71</ele>
        <time>2017-11-22T12:03:29Z</time>
      </trkpt>
      <trkpt lat="44.9175" lon="6.7244">
        <ele>2021.79</ele>
        <time>2017-11-22T12:03:33Z</time>
      </trkpt>
      <trkpt lat="44.91785" lon="6.72434">
        <ele>2021.79</ele>
        <time>2017-11-22T12:03:38Z</time>
      </trkpt>
      <trkpt lat="44.9181" lon="6.72431">
        <ele>2017.46</ele>
        <time>2017-11-22T12:03:42Z</time>
      </trkpt>
      <trkpt lat="44.91816" lon="6.7243">
        <ele>2017.94</ele>
        <time>2017-11-22T12:03:43Z</time>
      </trkpt>
      <trkpt lat="44.91828" lon="6.72427">
        <ele>2017.46</ele>
        <time>2017-11-22T12:03:45Z</time>
      </trkpt>
      <trkpt lat="44.91847" lon="6.7242">
        <ele>2016.02</ele>
        <time>2017-11-22T12:03:48Z</time>
      </trkpt>
      <trkpt lat="44.9186" lon="6.72421">
        <ele>2014.1</ele>
        <time>2017-11-22T12:03:50Z</time>
      </trkpt>
      <trkpt lat="44.9188" lon="6.72415">
        <ele>2014.1</ele>
        <time>2017-11-22T12:03:53Z</time>
      </trkpt>
      <trkpt lat="44.91893" lon="6.72409">
        <ele>2015.54</ele>
        <time>2017-11-22T12:03:55Z</time>
      </trkpt>
      <trkpt lat="44.91906" lon="6.72407">
        <ele>2009.29</ele>
        <time>2017-11-22T12:03:57Z</time>
      </trkpt>
      <trkpt lat="44.91911" lon="6.72407">
        <ele>2012.18</ele>
        <time>2017-11-22T12:03:58Z</time>
      </trkpt>
      <trkpt lat="44.91922" lon="6.72403">
        <ele>2012.18</ele>
        <time>2017-11-22T12:04:00Z</time>
      </trkpt>
      <trkpt lat="44.91938" lon="6.72396">
        <ele>2008.33</ele>
        <time>2017-11-22T12:04:03Z</time>
      </trkpt>
      <trkpt lat="44.9195" lon="6.72398">
        <ele>2006.41</ele>
        <time>2017-11-22T12:04:06Z</time>
      </trkpt>
      <trkpt lat="44.91954" lon="6.72396">
        <ele>2005.93</ele>
        <time>2017-11-22T12:04:14Z</time>
      </trkpt>
      <trkpt lat="44.91953" lon="6.72395">
        <ele>2005.93</ele>
        <time>2017-11-22T12:04:37Z</time>
      </trkpt>
      <trkpt lat="44.91953" lon="6.72392">
        <ele>2005.93</ele>
        <time>2017-11-22T12:05:03Z</time>
      </trkpt>
      <trkpt lat="44.91954" lon="6.72394">
        <ele>2005.45</ele>
        <time>2017-11-22T12:05:32Z</time>
      </trkpt>
      <trkpt lat="44.91954" lon="6.72396">
        <ele>2005.45</ele>
        <time>2017-11-22T12:05:56Z</time>
      </trkpt>
      <trkpt lat="44.91955" lon="6.72396">
        <ele>2005.45</ele>
        <time>2017-11-22T12:06:15Z</time>
      </trkpt>
      <trkpt lat="44.91953" lon="6.72397">
        <ele>2005.45</ele>
        <time>2017-11-22T12:06:35Z</time>
      </trkpt>
      <trkpt lat="44.91953" lon="6.72398">
        <ele>2004.97</ele>
        <time>2017-11-22T12:06:55Z</time>
      </trkpt>
      <trkpt lat="44.91955" lon="6.72396">
        <ele>2004.97</ele>
        <time>2017-11-22T12:07:01Z</time>
      </trkpt>
      <trkpt lat="44.9196" lon="6.72391">
        <ele>2004.97</ele>
        <time>2017-11-22T12:07:05Z</time>
      </trkpt>
      <trkpt lat="44.92008" lon="6.72366">
        <ele>2002.08</ele>
        <time>2017-11-22T12:07:17Z</time>
      </trkpt>
      <trkpt lat="44.92032" lon="6.72356">
        <ele>2002.08</ele>
        <time>2017-11-22T12:07:21Z</time>
      </trkpt>
      <trkpt lat="44.9207" lon="6.72338">
        <ele>1994.87</ele>
        <time>2017-11-22T12:07:27Z</time>
      </trkpt>
      <trkpt lat="44.92103" lon="6.72318">
        <ele>1989.59</ele>
        <time>2017-11-22T12:07:32Z</time>
      </trkpt>
      <trkpt lat="44.92117" lon="6.72311">
        <ele>1987.66</ele>
        <time>2017-11-22T12:07:34Z</time>
      </trkpt>
      <trkpt lat="44.92123" lon="6.72306">
        <ele>1989.1</ele>
        <time>2017-11-22T12:07:35Z</time>
      </trkpt>
      <trkpt lat="44.92148" lon="6.72292">
        <ele>1982.86</ele>
        <time>2017-11-22T12:07:39Z</time>
      </trkpt>
      <trkpt lat="44.92154" lon="6.72288">
        <ele>1983.34</ele>
        <time>2017-11-22T12:07:40Z</time>
      </trkpt>
      <trkpt lat="44.92178" lon="6.72274">
        <ele>1979.49</ele>
        <time>2017-11-22T12:07:44Z</time>
      </trkpt>
      <trkpt lat="44.92183" lon="6.72269">
        <ele>1981.9</ele>
        <time>2017-11-22T12:07:45Z</time>
      </trkpt>
      <trkpt lat="44.9222" lon="6.72239">
        <ele>1975.17</ele>
        <time>2017-11-22T12:07:52Z</time>
      </trkpt>
      <trkpt lat="44.9223" lon="6.72235">
        <ele>1974.69</ele>
        <time>2017-11-22T12:07:54Z</time>
      </trkpt>
      <trkpt lat="44.92251" lon="6.72222">
        <ele>1971.8</ele>
        <time>2017-11-22T12:07:58Z</time>
      </trkpt>
      <trkpt lat="44.92257" lon="6.72218">
        <ele>1971.32</ele>
        <time>2017-11-22T12:07:59Z</time>
      </trkpt>
      <trkpt lat="44.92274" lon="6.72204">
        <ele>1967.48</ele>
        <time>2017-11-22T12:08:02Z</time>
      </trkpt>
      <trkpt lat="44.92278" lon="6.72199">
        <ele>1968.92</ele>
        <time>2017-11-22T12:08:03Z</time>
      </trkpt>
      <trkpt lat="44.92293" lon="6.72191">
        <ele>1964.59</ele>
        <time>2017-11-22T12:08:06Z</time>
      </trkpt>
      <trkpt lat="44.92308" lon="6.72178">
        <ele>1961.71</ele>
        <time>2017-11-22T12:08:09Z</time>
      </trkpt>
      <trkpt lat="44.92313" lon="6.72173">
        <ele>1963.15</ele>
        <time>2017-11-22T12:08:10Z</time>
      </trkpt>
      <trkpt lat="44.92323" lon="6.72167">
        <ele>1959.3</ele>
        <time>2017-11-22T12:08:12Z</time>
      </trkpt>
      <trkpt lat="44.92328" lon="6.72164">
        <ele>1960.27</ele>
        <time>2017-11-22T12:08:13Z</time>
      </trkpt>
      <trkpt lat="44.9234" lon="6.72161">
        <ele>1954.5</ele>
        <time>2017-11-22T12:08:15Z</time>
      </trkpt>
      <trkpt lat="44.92365" lon="6.72162">
        <ele>1950.65</ele>
        <time>2017-11-22T12:08:19Z</time>
      </trkpt>
      <trkpt lat="44.92389" lon="6.72164">
        <ele>1945.85</ele>
        <time>2017-11-22T12:08:23Z</time>
      </trkpt>
      <trkpt lat="44.924" lon="6.72165">
        <ele>1944.88</ele>
        <time>2017-11-22T12:08:25Z</time>
      </trkpt>
      <trkpt lat="44.92412" lon="6.72163">
        <ele>1940.56</ele>
        <time>2017-11-22T12:08:27Z</time>
      </trkpt>
      <trkpt lat="44.92432" lon="6.72163">
        <ele>1938.16</ele>
        <time>2017-11-22T12:08:30Z</time>
      </trkpt>
      <trkpt lat="44.92444" lon="6.72169">
        <ele>1933.83</ele>
        <time>2017-11-22T12:08:33Z</time>
      </trkpt>
      <trkpt lat="44.92444" lon="6.72169">
        <ele>1934.31</ele>
        <time>2017-11-22T12:08:41Z</time>
      </trkpt>
      <trkpt lat="44.92441" lon="6.72168">
        <ele>1934.31</ele>
        <time>2017-11-22T12:09:01Z</time>
      </trkpt>
      <trkpt lat="44.9244" lon="6.72169">
        <ele>1934.31</ele>
        <time>2017-11-22T12:09:28Z</time>
      </trkpt>
      <trkpt lat="44.92439" lon="6.72167">
        <ele>1934.31</ele>
        <time>2017-11-22T12:09:51Z</time>
      </trkpt>
      <trkpt lat="44.9244" lon="6.72165">
        <ele>1934.31</ele>
        <time>2017-11-22T12:10:10Z</time>
      </trkpt>
      <trkpt lat="44.92441" lon="6.72164">
        <ele>1934.31</ele>
        <time>2017-11-22T12:10:37Z</time>
      </trkpt>
      <trkpt lat="44.92441" lon="6.72163">
        <ele>1933.83</ele>
        <time>2017-11-22T12:10:40Z</time>
      </trkpt>
      <trkpt lat="44.92458" lon="6.72164">
        <ele>1931.91</ele>
        <time>2017-11-22T12:10:46Z</time>
      </trkpt>
      <trkpt lat="44.92476" lon="6.72164">
        <ele>1928.54</ele>
        <time>2017-11-22T12:10:50Z</time>
      </trkpt>
      <trkpt lat="44.92495" lon="6.72162">
        <ele>1925.66</ele>
        <time>2017-11-22T12:10:54Z</time>
      </trkpt>
      <trkpt lat="44.92499" lon="6.72161">
        <ele>1926.14</ele>
        <time>2017-11-22T12:10:55Z</time>
      </trkpt>
      <trkpt lat="44.92513" lon="6.72165">
        <ele>1922.29</ele>
        <time>2017-11-22T12:10:58Z</time>
      </trkpt>
      <trkpt lat="44.92517" lon="6.72164">
        <ele>1922.77</ele>
        <time>2017-11-22T12:10:59Z</time>
      </trkpt>
      <trkpt lat="44.92528" lon="6.72163">
        <ele>1919.89</ele>
        <time>2017-11-22T12:11:02Z</time>
      </trkpt>
      <trkpt lat="44.92542" lon="6.72155">
        <ele>1916.53</ele>
        <time>2017-11-22T12:11:05Z</time>
      </trkpt>
      <trkpt lat="44.92551" lon="6.72155">
        <ele>1915.08</ele>
        <time>2017-11-22T12:11:07Z</time>
      </trkpt>
      <trkpt lat="44.92581" lon="6.72144">
        <ele>1910.28</ele>
        <time>2017-11-22T12:11:13Z</time>
      </trkpt>
      <trkpt lat="44.926" lon="6.72133">
        <ele>1905.95</ele>
        <time>2017-11-22T12:11:17Z</time>
      </trkpt>
      <trkpt lat="44.9262" lon="6.72125">
        <ele>1900.66</ele>
        <time>2017-11-22T12:11:21Z</time>
      </trkpt>
      <trkpt lat="44.9263" lon="6.72123">
        <ele>1897.3</ele>
        <time>2017-11-22T12:11:23Z</time>
      </trkpt>
      <trkpt lat="44.92658" lon="6.72127">
        <ele>1892.49</ele>
        <time>2017-11-22T12:11:29Z</time>
      </trkpt>
      <trkpt lat="44.92679" lon="6.72124">
        <ele>1889.13</ele>
        <time>2017-11-22T12:11:34Z</time>
      </trkpt>
      <trkpt lat="44.92687" lon="6.7213">
        <ele>1887.69</ele>
        <time>2017-11-22T12:11:36Z</time>
      </trkpt>
      <trkpt lat="44.92709" lon="6.72134">
        <ele>1885.76</ele>
        <time>2017-11-22T12:11:41Z</time>
      </trkpt>
      <trkpt lat="44.92726" lon="6.72135">
        <ele>1882.88</ele>
        <time>2017-11-22T12:11:45Z</time>
      </trkpt>
      <trkpt lat="44.92748" lon="6.72121">
        <ele>1880.48</ele>
        <time>2017-11-22T12:11:52Z</time>
      </trkpt>
      <trkpt lat="44.92757" lon="6.72104">
        <ele>1878.55</ele>
        <time>2017-11-22T12:11:55Z</time>
      </trkpt>
      <trkpt lat="44.92761" lon="6.72102">
        <ele>1878.55</ele>
        <time>2017-11-22T12:11:56Z</time>
      </trkpt>
      <trkpt lat="44.92784" lon="6.72089">
        <ele>1875.19</ele>
        <time>2017-11-22T12:12:01Z</time>
      </trkpt>
      <trkpt lat="44.92801" lon="6.7208">
        <ele>1874.71</ele>
        <time>2017-11-22T12:12:06Z</time>
      </trkpt>
      <trkpt lat="44.92802" lon="6.7203">
        <ele>1872.3</ele>
        <time>2017-11-22T12:12:18Z</time>
      </trkpt>
      <trkpt lat="44.92801" lon="6.72025">
        <ele>1872.3</ele>
        <time>2017-11-22T12:12:28Z</time>
      </trkpt>
      <trkpt lat="44.92801" lon="6.72023">
        <ele>1872.3</ele>
        <time>2017-11-22T12:12:44Z</time>
      </trkpt>
      <trkpt lat="44.92806" lon="6.72021">
        <ele>1871.34</ele>
        <time>2017-11-22T12:12:56Z</time>
      </trkpt>
      <trkpt lat="44.92805" lon="6.72021">
        <ele>1871.34</ele>
        <time>2017-11-22T12:13:22Z</time>
      </trkpt>
      <trkpt lat="44.92805" lon="6.72018">
        <ele>1870.86</ele>
        <time>2017-11-22T12:13:42Z</time>
      </trkpt>
      <trkpt lat="44.92806" lon="6.72021">
        <ele>1870.86</ele>
        <time>2017-11-22T12:13:56Z</time>
      </trkpt>
      <trkpt lat="44.92806" lon="6.72021">
        <ele>1870.86</ele>
        <time>2017-11-22T12:14:18Z</time>
      </trkpt>
      <trkpt lat="44.92807" lon="6.7202">
        <ele>1870.38</ele>
        <time>2017-11-22T12:14:36Z</time>
      </trkpt>
      <trkpt lat="44.92809" lon="6.72021">
        <ele>1870.86</ele>
        <time>2017-11-22T12:14:52Z</time>
      </trkpt>
      <trkpt lat="44.92809" lon="6.72019">
        <ele>1870.86</ele>
        <time>2017-11-22T12:15:07Z</time>
      </trkpt>
      <trkpt lat="44.92807" lon="6.7202">
        <ele>1870.86</ele>
        <time>2017-11-22T12:15:22Z</time>
      </trkpt>
      <trkpt lat="44.92808" lon="6.72018">
        <ele>1870.38</ele>
        <time>2017-11-22T12:15:41Z</time>
      </trkpt>
      <trkpt lat="44.92807" lon="6.72016">
        <ele>1870.38</ele>
        <time>2017-11-22T12:16:00Z</time>
      </trkpt>
      <trkpt lat="44.92809" lon="6.72016">
        <ele>1870.38</ele>
        <time>2017-11-22T12:16:08Z</time>
      </trkpt>
      <trkpt lat="44.92818" lon="6.72003">
        <ele>1868.46</ele>
        <time>2017-11-22T12:16:21Z</time>
      </trkpt>
      <trkpt lat="44.9282" lon="6.72">
        <ele>1867.98</ele>
        <time>2017-11-22T12:16:25Z</time>
      </trkpt>
      <trkpt lat="44.92828" lon="6.71993">
        <ele>1867.02</ele>
        <time>2017-11-22T12:16:33Z</time>
      </trkpt>
      <trkpt lat="44.92851" lon="6.71997">
        <ele>1865.09</ele>
        <time>2017-11-22T12:16:55Z</time>
      </trkpt>
      <trkpt lat="44.92854" lon="6.71994">
        <ele>1864.61</ele>
        <time>2017-11-22T12:17:08Z</time>
      </trkpt>
      <trkpt lat="44.92852" lon="6.71995">
        <ele>1863.65</ele>
        <time>2017-11-22T12:17:25Z</time>
      </trkpt>
      <trkpt lat="44.92855" lon="6.71994">
        <ele>1863.65</ele>
        <time>2017-11-22T12:17:49Z</time>
      </trkpt>
      <trkpt lat="44.92858" lon="6.71995">
        <ele>1863.17</ele>
        <time>2017-11-22T12:18:14Z</time>
      </trkpt>
      <trkpt lat="44.92853" lon="6.71994">
        <ele>1864.61</ele>
        <time>2017-11-22T12:18:29Z</time>
      </trkpt>
      <trkpt lat="44.92858" lon="6.71993">
        <ele>1864.13</ele>
        <time>2017-11-22T12:18:43Z</time>
      </trkpt>
    </trkseg>
  </trk>
</gpx>